Observation data for Dell City 1N on 11/11/2019      Previous  Date       Current Mesonet Observations  Soil Data  Daily Summary Page  Observations in Plain Language
KDC1 110600Z 00000KT 14/09 A3002 RMK A01 T01420094  RH  072%=      5-min Rain = 0
KDC1 110601Z 29000KT 14/09 A3002 RMK A01 T01410093  RH  072%=      5-min Rain = 0
KDC1 110602Z 00000KT 14/09 A3002 RMK A01 T01400094  RH  074%=      5-min Rain = 0
KDC1 110603Z 00000KT 14/09 A3002 RMK A01 T01400093  RH  074%=      5-min Rain = 0
KDC1 110604Z 00000KT 14/09 A3002 RMK A01 T01380091  RH  073%=      5-min Rain = 0
KDC1 110605Z 16000KT 13/09 A3002 RMK A01 T01340091  RH  075%=      5-min Rain = 0
KDC1 110606Z 21001KT 13/09 A3002 RMK A01 T01330092  RH  076%=      5-min Rain = 0
KDC1 110607Z 21001KT 13/09 A3002 RMK A01 T01320092  RH  077%=      5-min Rain = 0
KDC1 110608Z 21002KT 13/09 A3002 RMK A01 T01310092  RH  077%=      5-min Rain = 0
KDC1 110609Z 20001KT 13/09 A3002 RMK A01 T01300093  RH  078%=      5-min Rain = 0
KDC1 110610Z 19002KT 13/09 A3002 RMK A01 T01300094  RH  079%=      5-min Rain = 0
KDC1 110611Z 20002KT 13/10 A3002 RMK A01 T01320096  RH  079%=      5-min Rain = 0
KDC1 110612Z 20002KT 13/10 A3002 RMK A01 T01330096  RH  078%=      5-min Rain = 0
KDC1 110613Z 20002KT 13/10 A3002 RMK A01 T01340096  RH  078%=      5-min Rain = 0
KDC1 110614Z 20002KT 14/10 A3002 RMK A01 T01350096  RH  077%=      5-min Rain = 0
KDC1 110615Z 23002KT 14/10 A3002 RMK A01 T01350096  RH  077%=      5-min Rain = 0
KDC1 110616Z 22003KT 14/10 A3002 RMK A01 T01370097  RH  077%=      5-min Rain = 0
KDC1 110617Z 23002KT 14/10 A3002 RMK A01 T01400098  RH  076%=      5-min Rain = 0
KDC1 110618Z 24002KT 14/10 A3002 RMK A01 T01410096  RH  074%=      5-min Rain = 0
KDC1 110619Z 24002KT 14/10 A3002 RMK A01 T01420097  RH  074%=      5-min Rain = 0
KDC1 110620Z 23001KT 14/10 A3002 RMK A01 T01440097  RH  074%=      5-min Rain = 0
KDC1 110621Z 00000KT 14/10 A3002 RMK A01 T01430095  RH  073%=      5-min Rain = 0
KDC1 110622Z 30002KT 14/10 A3002 RMK A01 T01420096  RH  074%=      5-min Rain = 0
KDC1 110623Z 30005KT 14/09 A3002 RMK A01 T01420094  RH  073%=      5-min Rain = 0
KDC1 110624Z 28010KT 14/10 A3001 RMK A01 T01440097  RH  073%=      5-min Rain = 0
KDC1 110625Z 28009KT 16/10 A3001 RMK A01 T01600101  RH  068%=      5-min Rain = 0
KDC1 110626Z 28009KT 17/10 A3001 RMK A01 T01700102  RH  064%=      5-min Rain = 0
KDC1 110627Z 28008KT 18/10 A3001 RMK A01 T01760102  RH  062%=      5-min Rain = 0
KDC1 110628Z 27007KT 18/10 A3002 RMK A01 T01770100  RH  061%=      5-min Rain = 0
KDC1 110629Z 27006KT 18/10 A3002 RMK A01 T01770099  RH  060%=      5-min Rain = 0
KDC1 110630Z 26005KT 18/10 A3002 RMK A01 T01750099  RH  061%=      5-min Rain = 0
KDC1 110631Z 26003KT 17/10 A3002 RMK A01 T01740099  RH  061%=      5-min Rain = 0
KDC1 110632Z 27003KT 17/10 A3002 RMK A01 T01740098  RH  061%=      5-min Rain = 0
KDC1 110633Z 35001KT 17/09 A3002 RMK A01 T01670092  RH  061%=      5-min Rain = 0
KDC1 110634Z 07002KT 16/09 A3002 RMK A01 T01580091  RH  064%=      5-min Rain = 0
KDC1 110635Z 07004KT 15/09 A3002 RMK A01 T01500091  RH  068%=      5-min Rain = 0
KDC1 110636Z 07004KT 14/09 A3002 RMK A01 T01440091  RH  070%=      5-min Rain = 0
KDC1 110637Z 08003KT 14/09 A3002 RMK A01 T01410093  RH  073%=      5-min Rain = 0
KDC1 110638Z 09004KT 14/09 A3002 RMK A01 T01390094  RH  074%=      5-min Rain = 0
KDC1 110639Z 09002KT 14/09 A3002 RMK A01 T01380094  RH  075%=      5-min Rain = 0
KDC1 110640Z 08003KT 14/09 A3002 RMK A01 T01360094  RH  075%=      5-min Rain = 0
KDC1 110641Z 08003KT 14/09 A3002 RMK A01 T01360094  RH  076%=      5-min Rain = 0
KDC1 110642Z 08002KT 13/09 A3002 RMK A01 T01340094  RH  076%=      5-min Rain = 0
KDC1 110643Z 08003KT 13/09 A3002 RMK A01 T01340094  RH  077%=      5-min Rain = 0
KDC1 110644Z 06003KT 13/09 A3002 RMK A01 T01340094  RH  077%=      5-min Rain = 0
KDC1 110645Z 07003KT 13/09 A3002 RMK A01 T01340094  RH  077%=      5-min Rain = 0
KDC1 110646Z 08002KT 13/09 A3002 RMK A01 T01330094  RH  077%=      5-min Rain = 0
KDC1 110647Z 09002KT 13/09 A3002 RMK A01 T01330093  RH  077%=      5-min Rain = 0
KDC1 110648Z 10002KT 13/09 A3002 RMK A01 T01330094  RH  077%=      5-min Rain = 0
KDC1 110649Z 09002KT 13/09 A3002 RMK A01 T01320094  RH  077%=      5-min Rain = 0
KDC1 110650Z 11002KT 13/09 A3002 RMK A01 T01320094  RH  078%=      5-min Rain = 0
KDC1 110651Z 07002KT 13/09 A3002 RMK A01 T01320094  RH  078%=      5-min Rain = 0
KDC1 110652Z 06003KT 13/09 A3002 RMK A01 T01310094  RH  078%=      5-min Rain = 0
KDC1 110653Z 06004KT 13/09 A3002 RMK A01 T01310094  RH  078%=      5-min Rain = 0
KDC1 110654Z 06004KT 13/09 A3002 RMK A01 T01310094  RH  078%=      5-min Rain = 0
KDC1 110655Z 05004KT 13/09 A3002 RMK A01 T01310093  RH  078%=      5-min Rain = 0
KDC1 110656Z 04004KT 13/09 A3002 RMK A01 T01310093  RH  078%=      5-min Rain = 0
KDC1 110657Z 04005KT 13/09 A3002 RMK A01 T01310093  RH  078%=      5-min Rain = 0
KDC1 110658Z 05005KT 13/09 A3002 RMK A01 T01310093  RH  078%=      5-min Rain = 0
KDC1 110659Z 05004KT 13/09 A3002 RMK A01 T01310093  RH  078%=      5-min Rain = 0
KDC1 110700Z 06002KT 13/09 A3002 RMK A01 T01320093  RH  077%=      5-min Rain = 0
KDC1 110701Z 13002KT 13/09 A3002 RMK A01 T01320093  RH  077%=      5-min Rain = 0
KDC1 110702Z 11002KT 13/09 A3002 RMK A01 T01310094  RH  078%=      5-min Rain = 0
KDC1 110703Z 11002KT 13/09 A3002 RMK A01 T01300093  RH  079%=      5-min Rain = 0
KDC1 110704Z 09002KT 13/09 A3002 RMK A01 T01300094  RH  079%=      5-min Rain = 0
KDC1 110705Z 07004KT 13/10 A3002 RMK A01 T01310095  RH  079%=      5-min Rain = 0
KDC1 110706Z 07004KT 13/10 A3002 RMK A01 T01320095  RH  079%=      5-min Rain = 0
KDC1 110707Z 08004KT 13/10 A3002 RMK A01 T01320096  RH  078%=      5-min Rain = 0
KDC1 110708Z 08004KT 13/10 A3002 RMK A01 T01330095  RH  078%=      5-min Rain = 0
KDC1 110709Z 09002KT 13/10 A3002 RMK A01 T01330095  RH  078%=      5-min Rain = 0
KDC1 110710Z 11002KT 13/10 A3002 RMK A01 T01330095  RH  078%=      5-min Rain = 0
KDC1 110711Z 11004KT 13/10 A3002 RMK A01 T01330095  RH  078%=      5-min Rain = 0
KDC1 110712Z 11004KT 13/09 A3002 RMK A01 T01320094  RH  078%=      5-min Rain = 0
KDC1 110713Z 09003KT 13/09 A3002 RMK A01 T01310094  RH  078%=      5-min Rain = 0
KDC1 110714Z 08003KT 13/09 A3002 RMK A01 T01300094  RH  079%=      5-min Rain = 0
KDC1 110715Z 09004KT 13/10 A3002 RMK A01 T01300095  RH  079%=      5-min Rain = 0
KDC1 110716Z 09003KT 13/10 A3002 RMK A01 T01310096  RH  079%=      5-min Rain = 0
KDC1 110717Z 08002KT 13/10 A3002 RMK A01 T01310096  RH  079%=      5-min Rain = 0
KDC1 110718Z 05002KT 13/10 A3001 RMK A01 T01320095  RH  078%=      5-min Rain = 0
KDC1 110719Z 06004KT 13/10 A3001 RMK A01 T01310095  RH  078%=      5-min Rain = 0
KDC1 110720Z 02002KT 13/10 A3001 RMK A01 T01310096  RH  079%=      5-min Rain = 0
KDC1 110721Z 03003KT 13/10 A3001 RMK A01 T01310096  RH  079%=      5-min Rain = 0
KDC1 110722Z 05004KT 13/10 A3002 RMK A01 T01320096  RH  079%=      5-min Rain = 0
KDC1 110723Z 04004KT 13/10 A3002 RMK A01 T01320095  RH  078%=      5-min Rain = 0
KDC1 110724Z 06004KT 13/10 A3001 RMK A01 T01330096  RH  078%=      5-min Rain = 0
KDC1 110725Z 06004KT 13/10 A3001 RMK A01 T01340096  RH  077%=      5-min Rain = 0
KDC1 110726Z 05003KT 13/10 A3002 RMK A01 T01340095  RH  077%=      5-min Rain = 0
KDC1 110727Z 18001KT 13/09 A3002 RMK A01 T01330094  RH  077%=      5-min Rain = 0
KDC1 110728Z 15003KT 13/09 A3002 RMK A01 T01320094  RH  078%=      5-min Rain = 0
KDC1 110729Z 15002KT 13/09 A3002 RMK A01 T01310094  RH  078%=      5-min Rain = 0
KDC1 110730Z 14002KT 13/10 A3002 RMK A01 T01310095  RH  079%=      5-min Rain = 0
KDC1 110731Z 13002KT 13/10 A3002 RMK A01 T01310096  RH  079%=      5-min Rain = 0
KDC1 110732Z 15002KT 13/10 A3002 RMK A01 T01310097  RH  079%=      5-min Rain = 0
KDC1 110733Z 15000KT 13/10 A3002 RMK A01 T01330097  RH  079%=      5-min Rain = 0
KDC1 110734Z 00000KT 13/10 A3002 RMK A01 T01330095  RH  078%=      5-min Rain = 0
KDC1 110735Z 07000KT 13/10 A3002 RMK A01 T01310095  RH  078%=      5-min Rain = 0
KDC1 110736Z 00000KT 13/10 A3002 RMK A01 T01310096  RH  079%=      5-min Rain = 0
KDC1 110737Z 05000KT 13/10 A3002 RMK A01 T01310096  RH  079%=      5-min Rain = 0
KDC1 110738Z 05001KT 13/10 A3002 RMK A01 T01320096  RH  079%=      5-min Rain = 0
KDC1 110739Z 06001KT 13/10 A3002 RMK A01 T01320095  RH  079%=      5-min Rain = 0
KDC1 110740Z 07001KT 13/10 A3002 RMK A01 T01320095  RH  078%=      5-min Rain = 0
KDC1 110741Z 00000KT 13/09 A3002 RMK A01 T01300093  RH  078%=      5-min Rain = 0
KDC1 110742Z 10000KT 13/09 A3002 RMK A01 T01280092  RH  079%=      5-min Rain = 0
KDC1 110743Z 12002KT 13/09 A3002 RMK A01 T01270092  RH  079%=      5-min Rain = 0
KDC1 110744Z 13002KT 13/09 A3002 RMK A01 T01270093  RH  080%=      5-min Rain = 0
KDC1 110745Z 13003KT 13/09 A3002 RMK A01 T01270093  RH  080%=      5-min Rain = 0
KDC1 110746Z 13003KT 13/09 A3002 RMK A01 T01260094  RH  081%=      5-min Rain = 0
KDC1 110747Z 12003KT 13/10 A3002 RMK A01 T01270096  RH  081%=      5-min Rain = 0
KDC1 110748Z 12003KT 13/10 A3002 RMK A01 T01290098  RH  081%=      5-min Rain = 0
KDC1 110749Z 12003KT 13/10 A3002 RMK A01 T01310098  RH  080%=      5-min Rain = 0
KDC1 110750Z 12003KT 13/10 A3002 RMK A01 T01330098  RH  079%=      5-min Rain = 0
KDC1 110751Z 11002KT 14/10 A3002 RMK A01 T01350099  RH  079%=      5-min Rain = 0
KDC1 110752Z 10002KT 14/10 A3002 RMK A01 T01370099  RH  078%=      5-min Rain = 0
KDC1 110753Z 09002KT 14/10 A3002 RMK A01 T01370097  RH  077%=      5-min Rain = 0
KDC1 110754Z 09002KT 14/10 A3002 RMK A01 T01370097  RH  077%=      5-min Rain = 0
KDC1 110755Z 08002KT 14/10 A3002 RMK A01 T01370096  RH  076%=      5-min Rain = 0
KDC1 110756Z 07002KT 14/09 A3002 RMK A01 T01350093  RH  075%=      5-min Rain = 0
KDC1 110757Z 05001KT 14/10 A3002 RMK A01 T01350096  RH  077%=      5-min Rain = 0
KDC1 110758Z 02001KT 14/10 A3002 RMK A01 T01350096  RH  078%=      5-min Rain = 0
KDC1 110759Z 05001KT 14/10 A3002 RMK A01 T01370097  RH  077%=      5-min Rain = 0
KDC1 110800Z 05001KT 14/10 A3002 RMK A01 T01390096  RH  076%=      5-min Rain = 0
KDC1 110801Z 08002KT 14/10 A3002 RMK A01 T01390095  RH  075%=      5-min Rain = 0
KDC1 110802Z 10002KT 14/10 A3002 RMK A01 T01390095  RH  075%=      5-min Rain = 0
KDC1 110803Z 12002KT 14/09 A3002 RMK A01 T01390094  RH  074%=      5-min Rain = 0
KDC1 110804Z 10003KT 14/09 A3002 RMK A01 T01370093  RH  075%=      5-min Rain = 0
KDC1 110805Z 09004KT 13/09 A3002 RMK A01 T01340092  RH  076%=      5-min Rain = 0
KDC1 110806Z 08005KT 13/09 A3003 RMK A01 T01320092  RH  077%=      5-min Rain = 0
KDC1 110807Z 08004KT 13/09 A3003 RMK A01 T01300092  RH  078%=      5-min Rain = 0
KDC1 110808Z 09004KT 13/09 A3003 RMK A01 T01300092  RH  078%=      5-min Rain = 0
KDC1 110809Z 09003KT 13/09 A3003 RMK A01 T01290092  RH  078%=      5-min Rain = 0
KDC1 110810Z 10003KT 13/09 A3003 RMK A01 T01300092  RH  078%=      5-min Rain = 0
KDC1 110811Z 11003KT 13/09 A3002 RMK A01 T01300093  RH  078%=      5-min Rain = 0
KDC1 110812Z 11003KT 13/09 A3003 RMK A01 T01290092  RH  078%=      5-min Rain = 0
KDC1 110813Z 11002KT 13/09 A3003 RMK A01 T01290092  RH  078%=      5-min Rain = 0
KDC1 110814Z 14001KT 13/09 A3003 RMK A01 T01280092  RH  079%=      5-min Rain = 0
KDC1 110815Z 14002KT 13/09 A3003 RMK A01 T01280093  RH  079%=      5-min Rain = 0
KDC1 110816Z 12001KT 13/09 A3003 RMK A01 T01290093  RH  079%=      5-min Rain = 0
KDC1 110817Z 08002KT 13/09 A3003 RMK A01 T01290093  RH  079%=      5-min Rain = 0
KDC1 110818Z 07002KT 13/09 A3003 RMK A01 T01280093  RH  079%=      5-min Rain = 0
KDC1 110819Z 07002KT 13/09 A3003 RMK A01 T01290093  RH  079%=      5-min Rain = 0
KDC1 110820Z 08002KT 13/09 A3003 RMK A01 T01290092  RH  078%=      5-min Rain = 0
KDC1 110821Z 07001KT 13/09 A3003 RMK A01 T01280092  RH  078%=      5-min Rain = 0
KDC1 110822Z 08001KT 13/09 A3003 RMK A01 T01280092  RH  079%=      5-min Rain = 0
KDC1 110823Z 11001KT 13/09 A3003 RMK A01 T01280092  RH  079%=      5-min Rain = 0
KDC1 110824Z 14002KT 13/09 A3003 RMK A01 T01280092  RH  079%=      5-min Rain = 0
KDC1 110825Z 16003KT 13/09 A3003 RMK A01 T01280093  RH  079%=      5-min Rain = 0
KDC1 110826Z 16003KT 13/09 A3003 RMK A01 T01290094  RH  079%=      5-min Rain = 0
KDC1 110827Z 17004KT 13/09 A3003 RMK A01 T01310094  RH  078%=      5-min Rain = 0
KDC1 110828Z 16003KT 13/09 A3003 RMK A01 T01310093  RH  078%=      5-min Rain = 0
KDC1 110829Z 17002KT 13/09 A3003 RMK A01 T01330094  RH  077%=      5-min Rain = 0
KDC1 110830Z 18002KT 13/09 A3003 RMK A01 T01340094  RH  077%=      5-min Rain = 0
KDC1 110831Z 16003KT 14/09 A3003 RMK A01 T01350094  RH  076%=      5-min Rain = 0
KDC1 110832Z 17005KT 14/09 A3003 RMK A01 T01350094  RH  076%=      5-min Rain = 0
KDC1 110833Z 17006KT 14/09 A3003 RMK A01 T01350093  RH  076%=      5-min Rain = 0
KDC1 110834Z 18005KT 13/09 A3003 RMK A01 T01340092  RH  076%=      5-min Rain = 0
KDC1 110835Z 19004KT 13/09 A3003 RMK A01 T01320093  RH  077%=      5-min Rain = 0
KDC1 110836Z 18003KT 13/09 A3003 RMK A01 T01310093  RH  078%=      5-min Rain = 0
KDC1 110837Z 17003KT 13/09 A3003 RMK A01 T01310093  RH  078%=      5-min Rain = 0
KDC1 110838Z 16003KT 13/09 A3003 RMK A01 T01300093  RH  078%=      5-min Rain = 0
KDC1 110839Z 15002KT 13/09 A3003 RMK A01 T01310094  RH  078%=      5-min Rain = 0
KDC1 110840Z 15001KT 13/09 A3003 RMK A01 T01310094  RH  078%=      5-min Rain = 0
KDC1 110841Z 20002KT 13/09 A3003 RMK A01 T01310093  RH  078%=      5-min Rain = 0
KDC1 110842Z 20002KT 13/09 A3003 RMK A01 T01300092  RH  078%=      5-min Rain = 0
KDC1 110843Z 15002KT 13/09 A3003 RMK A01 T01290093  RH  078%=      5-min Rain = 0
KDC1 110844Z 12002KT 13/09 A3002 RMK A01 T01290093  RH  079%=      5-min Rain = 0
KDC1 110845Z 12002KT 13/09 A3002 RMK A01 T01300094  RH  079%=      5-min Rain = 0
KDC1 110846Z 10000KT 13/09 A3002 RMK A01 T01310092  RH  077%=      5-min Rain = 0
KDC1 110847Z 01000KT 13/09 A3002 RMK A01 T01310093  RH  078%=      5-min Rain = 0
KDC1 110848Z 35000KT 13/09 A3002 RMK A01 T01310092  RH  077%=      5-min Rain = 0
KDC1 110849Z 30001KT 13/09 A3002 RMK A01 T01310091  RH  077%=      5-min Rain = 0
KDC1 110850Z 31001KT 13/09 A3002 RMK A01 T01280090  RH  077%=      5-min Rain = 0
KDC1 110851Z 35001KT 13/09 A3002 RMK A01 T01280091  RH  078%=      5-min Rain = 0
KDC1 110852Z 30001KT 13/09 A3002 RMK A01 T01290090  RH  077%=      5-min Rain = 0
KDC1 110853Z 31001KT 13/09 A3002 RMK A01 T01300090  RH  077%=      5-min Rain = 0
KDC1 110854Z 32002KT 13/09 A3002 RMK A01 T01300089  RH  076%=      5-min Rain = 0
KDC1 110855Z 32002KT 13/09 A3002 RMK A01 T01290089  RH  077%=      5-min Rain = 0
KDC1 110856Z 34002KT 13/09 A3002 RMK A01 T01300090  RH  076%=      5-min Rain = 0
KDC1 110857Z 02005KT 13/09 A3002 RMK A01 T01290087  RH  076%=      5-min Rain = 0
KDC1 110858Z 01005KT 13/09 A3002 RMK A01 T01250087  RH  078%=      5-min Rain = 0
KDC1 110859Z 00005KT 12/09 A3002 RMK A01 T01230087  RH  079%=      5-min Rain = 0
KDC1 110900Z 02006KT 12/09 A3002 RMK A01 T01210088  RH  080%=      5-min Rain = 0
KDC1 110901Z 02006KT 12/09 A3002 RMK A01 T01210088  RH  080%=      5-min Rain = 0
KDC1 110902Z 02006KT 12/09 A3002 RMK A01 T01200088  RH  081%=      5-min Rain = 0
KDC1 110903Z 03006KT 12/09 A3002 RMK A01 T01190088  RH  081%=      5-min Rain = 0
KDC1 110904Z 03005KT 12/09 A3002 RMK A01 T01190088  RH  081%=      5-min Rain = 0
KDC1 110905Z 03004KT 12/09 A3002 RMK A01 T01190088  RH  081%=      5-min Rain = 0
KDC1 110906Z 02003KT 12/09 A3002 RMK A01 T01180087  RH  081%=      5-min Rain = 0
KDC1 110907Z 02002KT 12/09 A3002 RMK A01 T01170087  RH  082%=      5-min Rain = 0
KDC1 110908Z 03003KT 12/09 A3002 RMK A01 T01170087  RH  082%=      5-min Rain = 0
KDC1 110909Z 04003KT 12/09 A3002 RMK A01 T01170087  RH  082%=      5-min Rain = 0
KDC1 110910Z 04002KT 12/09 A3002 RMK A01 T01160087  RH  082%=      5-min Rain = 0
KDC1 110911Z 03001KT 12/09 A3002 RMK A01 T01160087  RH  082%=      5-min Rain = 0
KDC1 110912Z 04003KT 12/09 A3002 RMK A01 T01160087  RH  082%=      5-min Rain = 0
KDC1 110913Z 05004KT 12/09 A3002 RMK A01 T01170088  RH  083%=      5-min Rain = 0
KDC1 110914Z 06003KT 12/09 A3002 RMK A01 T01170088  RH  082%=      5-min Rain = 0
KDC1 110915Z 06002KT 12/09 A3002 RMK A01 T01180089  RH  082%=      5-min Rain = 0
KDC1 110916Z 05000KT 12/09 A3002 RMK A01 T01190088  RH  081%=      5-min Rain = 0
KDC1 110917Z 06001KT 12/09 A3002 RMK A01 T01190088  RH  081%=      5-min Rain = 0
KDC1 110918Z 05002KT 12/09 A3002 RMK A01 T01190088  RH  081%=      5-min Rain = 0
KDC1 110919Z 05003KT 12/09 A3002 RMK A01 T01190088  RH  081%=      5-min Rain = 0
KDC1 110920Z 05004KT 12/09 A3002 RMK A01 T01200088  RH  081%=      5-min Rain = 0
KDC1 110921Z 04003KT 12/09 A3002 RMK A01 T01190087  RH  081%=      5-min Rain = 0
KDC1 110922Z 01002KT 12/09 A3002 RMK A01 T01190088  RH  081%=      5-min Rain = 0
KDC1 110923Z 01001KT 12/09 A3002 RMK A01 T01200087  RH  081%=      5-min Rain = 0
KDC1 110924Z 04002KT 12/09 A3002 RMK A01 T01190087  RH  081%=      5-min Rain = 0
KDC1 110925Z 03004KT 12/09 A3002 RMK A01 T01200088  RH  081%=      5-min Rain = 0
KDC1 110926Z 02003KT 12/09 A3002 RMK A01 T01210088  RH  080%=      5-min Rain = 0
KDC1 110927Z 01003KT 12/09 A3002 RMK A01 T01210088  RH  080%=      5-min Rain = 0
KDC1 110928Z 35002KT 12/09 A3002 RMK A01 T01210087  RH  080%=      5-min Rain = 0
KDC1 110929Z 02002KT 12/09 A3002 RMK A01 T01200087  RH  080%=      5-min Rain = 0
KDC1 110930Z 04003KT 12/09 A3002 RMK A01 T01190087  RH  080%=      5-min Rain = 0
KDC1 110931Z 02004KT 12/09 A3002 RMK A01 T01200087  RH  081%=      5-min Rain = 0
KDC1 110932Z 00004KT 12/09 A3002 RMK A01 T01190087  RH  081%=      5-min Rain = 0
KDC1 110933Z 00004KT 12/09 A3002 RMK A01 T01200088  RH  081%=      5-min Rain = 0
KDC1 110934Z 00004KT 12/09 A3002 RMK A01 T01200087  RH  081%=      5-min Rain = 0
KDC1 110935Z 36005KT 12/09 A3002 RMK A01 T01190087  RH  081%=      5-min Rain = 0
KDC1 110936Z 36006KT 12/09 A3002 RMK A01 T01190087  RH  081%=      5-min Rain = 0
KDC1 110937Z 35005KT 12/09 A3002 RMK A01 T01190087  RH  081%=      5-min Rain = 0
KDC1 110938Z 35005KT 12/09 A3002 RMK A01 T01180087  RH  081%=      5-min Rain = 0
KDC1 110939Z 35004KT 12/09 A3002 RMK A01 T01180086  RH  081%=      5-min Rain = 0
KDC1 110940Z 34005KT 12/09 A3002 RMK A01 T01170087  RH  081%=      5-min Rain = 0
KDC1 110941Z 33005KT 12/09 A3002 RMK A01 T01170087  RH  082%=      5-min Rain = 0
KDC1 110942Z 32005KT 12/09 A3002 RMK A01 T01170087  RH  082%=      5-min Rain = 0
KDC1 110943Z 32005KT 12/09 A3002 RMK A01 T01170086  RH  081%=      5-min Rain = 0
KDC1 110944Z 32006KT 12/09 A3002 RMK A01 T01180086  RH  081%=      5-min Rain = 0
KDC1 110945Z 32005KT 12/09 A3002 RMK A01 T01190086  RH  081%=      5-min Rain = 0
KDC1 110946Z 31005KT 12/09 A3002 RMK A01 T01200086  RH  080%=      5-min Rain = 0
KDC1 110947Z 31005KT 12/09 A3002 RMK A01 T01220087  RH  079%=      5-min Rain = 0
KDC1 110948Z 30006KT 12/09 A3002 RMK A01 T01230087  RH  079%=      5-min Rain = 0
KDC1 110949Z 30006KT 12/09 A3002 RMK A01 T01230086  RH  078%=      5-min Rain = 0
KDC1 110950Z 30006KT 12/09 A3002 RMK A01 T01230086  RH  078%=      5-min Rain = 0
KDC1 110951Z 30006KT 12/09 A3002 RMK A01 T01240087  RH  078%=      5-min Rain = 0
KDC1 110952Z 29006KT 13/09 A3002 RMK A01 T01260089  RH  078%=      5-min Rain = 0
KDC1 110953Z 29006KT 13/09 A3002 RMK A01 T01300092  RH  077%=      5-min Rain = 0
KDC1 110954Z 29005KT 13/09 A3002 RMK A01 T01330093  RH  076%=      5-min Rain = 0
KDC1 110955Z 29005KT 14/09 A3002 RMK A01 T01350093  RH  076%=      5-min Rain = 0
KDC1 110956Z 29006KT 14/10 A3002 RMK A01 T01370095  RH  076%=      5-min Rain = 0
KDC1 110957Z 29006KT 14/10 A3002 RMK A01 T01390095  RH  075%=      5-min Rain = 0
KDC1 110958Z 29006KT 14/10 A3002 RMK A01 T01410096  RH  074%=      5-min Rain = 0
KDC1 110959Z 30007KT 14/10 A3002 RMK A01 T01440096  RH  073%=      5-min Rain = 0
KDC1 111000Z 30007KT 15/10 A3002 RMK A01 T01480096  RH  071%=      5-min Rain = 0
KDC1 111001Z 30006KT 15/10 A3002 RMK A01 T01500096  RH  070%=      5-min Rain = 0
KDC1 111002Z 30005KT 15/10 A3002 RMK A01 T01500096  RH  070%=      5-min Rain = 0
KDC1 111003Z 31005KT 15/10 A3002 RMK A01 T01500096  RH  070%=      5-min Rain = 0
KDC1 111004Z 31005KT 15/10 A3002 RMK A01 T01490095  RH  070%=      5-min Rain = 0
KDC1 111005Z 31004KT 15/09 A3002 RMK A01 T01490094  RH  069%=      5-min Rain = 0
KDC1 111006Z 30003KT 15/09 A3002 RMK A01 T01500094  RH  069%=      5-min Rain = 0
KDC1 111007Z 31003KT 15/09 A3002 RMK A01 T01500093  RH  069%=      5-min Rain = 0
KDC1 111008Z 30004KT 15/09 A3002 RMK A01 T01500093  RH  069%=      5-min Rain = 0
KDC1 111009Z 30004KT 15/09 A3002 RMK A01 T01500093  RH  069%=      5-min Rain = 0
KDC1 111010Z 30004KT 15/09 A3002 RMK A01 T01500093  RH  069%=      5-min Rain = 0
KDC1 111011Z 30003KT 15/09 A3002 RMK A01 T01500093  RH  068%=      5-min Rain = 0
KDC1 111012Z 31003KT 15/09 A3002 RMK A01 T01500092  RH  068%=      5-min Rain = 0
KDC1 111013Z 31005KT 15/09 A3002 RMK A01 T01500092  RH  068%=      5-min Rain = 0
KDC1 111014Z 31008KT 15/09 A3002 RMK A01 T01490092  RH  068%=      5-min Rain = 0
KDC1 111015Z 30008KT 15/09 A3002 RMK A01 T01510091  RH  068%=      5-min Rain = 0
KDC1 111016Z 30007KT 15/09 A3002 RMK A01 T01520092  RH  067%=      5-min Rain = 0
KDC1 111017Z 30007KT 15/09 A3002 RMK A01 T01530091  RH  067%=      5-min Rain = 0
KDC1 111018Z 30008KT 15/09 A3002 RMK A01 T01530091  RH  067%=      5-min Rain = 0
KDC1 111019Z 30007KT 15/09 A3002 RMK A01 T01530091  RH  066%=      5-min Rain = 0
KDC1 111020Z 30007KT 15/09 A3002 RMK A01 T01530091  RH  066%=      5-min Rain = 0
KDC1 111021Z 30007KT 15/09 A3002 RMK A01 T01530091  RH  066%=      5-min Rain = 0
KDC1 111022Z 30006KT 15/09 A3002 RMK A01 T01530091  RH  066%=      5-min Rain = 0
KDC1 111023Z 30007KT 15/09 A3002 RMK A01 T01530091  RH  066%=      5-min Rain = 0
KDC1 111024Z 30006KT 15/09 A3002 RMK A01 T01530091  RH  067%=      5-min Rain = 0
KDC1 111025Z 29008KT 15/09 A3002 RMK A01 T01530091  RH  067%=      5-min Rain = 0
KDC1 111026Z 29009KT 15/09 A3002 RMK A01 T01520091  RH  067%=      5-min Rain = 0
KDC1 111027Z 29009KT 15/09 A3002 RMK A01 T01540092  RH  066%=      5-min Rain = 0
KDC1 111028Z 29009KT 16/09 A3002 RMK A01 T01560092  RH  066%=      5-min Rain = 0
KDC1 111029Z 29008KT 16/09 A3002 RMK A01 T01570092  RH  065%=      5-min Rain = 0
KDC1 111030Z 29008KT 16/09 A3002 RMK A01 T01570092  RH  065%=      5-min Rain = 0
KDC1 111031Z 29007KT 16/09 A3002 RMK A01 T01570093  RH  065%=      5-min Rain = 0
KDC1 111032Z 29008KT 16/09 A3002 RMK A01 T01570093  RH  066%=      5-min Rain = 0
KDC1 111033Z 29008KT 16/09 A3002 RMK A01 T01560092  RH  066%=      5-min Rain = 0
KDC1 111034Z 30008KT 16/09 A3002 RMK A01 T01560092  RH  066%=      5-min Rain = 0
KDC1 111035Z 30007KT 16/09 A3002 RMK A01 T01560092  RH  066%=      5-min Rain = 0
KDC1 111036Z 30007KT 16/09 A3002 RMK A01 T01560093  RH  066%=      5-min Rain = 0
KDC1 111037Z 30007KT 16/09 A3002 RMK A01 T01560092  RH  066%=      5-min Rain = 0
KDC1 111038Z 30007KT 16/09 A3002 RMK A01 T01560093  RH  066%=      5-min Rain = 0
KDC1 111039Z 29007KT 16/09 A3002 RMK A01 T01550092  RH  066%=      5-min Rain = 0
KDC1 111040Z 29006KT 15/09 A3002 RMK A01 T01540093  RH  067%=      5-min Rain = 0
KDC1 111041Z 28006KT 15/09 A3002 RMK A01 T01540093  RH  067%=      5-min Rain = 0
KDC1 111042Z 29006KT 15/09 A3002 RMK A01 T01530093  RH  067%=      5-min Rain = 0
KDC1 111043Z 29007KT 15/09 A3002 RMK A01 T01530093  RH  067%=      5-min Rain = 0
KDC1 111044Z 28007KT 16/09 A3002 RMK A01 T01550093  RH  067%=      5-min Rain = 0
KDC1 111045Z 28007KT 16/09 A3002 RMK A01 T01570093  RH  066%=      5-min Rain = 0
KDC1 111046Z 28006KT 16/09 A3002 RMK A01 T01570094  RH  066%=      5-min Rain = 0
KDC1 111047Z 28006KT 16/09 A3002 RMK A01 T01570094  RH  066%=      5-min Rain = 0
KDC1 111048Z 29006KT 16/09 A3002 RMK A01 T01580094  RH  066%=      5-min Rain = 0
KDC1 111049Z 29007KT 16/10 A3002 RMK A01 T01580095  RH  066%=      5-min Rain = 0
KDC1 111050Z 28007KT 16/10 A3002 RMK A01 T01570095  RH  066%=      5-min Rain = 0
KDC1 111051Z 29007KT 16/10 A3002 RMK A01 T01580095  RH  066%=      5-min Rain = 0
KDC1 111052Z 28008KT 16/10 A3002 RMK A01 T01590095  RH  066%=      5-min Rain = 0
KDC1 111053Z 29008KT 16/10 A3002 RMK A01 T01610095  RH  065%=      5-min Rain = 0
KDC1 111054Z 29008KT 16/09 A3002 RMK A01 T01620094  RH  064%=      5-min Rain = 0
KDC1 111055Z 29009KT 16/09 A3002 RMK A01 T01640094  RH  063%=      5-min Rain = 0
KDC1 111056Z 29010KT 17/10 A3002 RMK A01 T01650095  RH  063%=      5-min Rain = 0
KDC1 111057Z 29010KT 17/09 A3002 RMK A01 T01660094  RH  063%=      5-min Rain = 0
KDC1 111058Z 29008KT 17/09 A3002 RMK A01 T01670094  RH  062%=      5-min Rain = 0
KDC1 111059Z 30008KT 17/09 A3002 RMK A01 T01680094  RH  062%=      5-min Rain = 0
KDC1 111100Z 30009KT 17/09 A3002 RMK A01 T01670094  RH  062%=      5-min Rain = 0
KDC1 111101Z 30009KT 17/09 A3002 RMK A01 T01660094  RH  062%=      5-min Rain = 0
KDC1 111102Z 30009KT 17/09 A3002 RMK A01 T01660094  RH  062%=      5-min Rain = 0
KDC1 111103Z 30009KT 17/09 A3002 RMK A01 T01650094  RH  063%=      5-min Rain = 0
KDC1 111104Z 30009KT 16/09 A3002 RMK A01 T01640093  RH  063%=      5-min Rain = 0
KDC1 111105Z 30009KT 16/09 A3002 RMK A01 T01630093  RH  063%=      5-min Rain = 0
KDC1 111106Z 30008KT 16/09 A3002 RMK A01 T01630093  RH  063%=      5-min Rain = 0
KDC1 111107Z 30008KT 16/09 A3002 RMK A01 T01610093  RH  064%=      5-min Rain = 0
KDC1 111108Z 30008KT 16/09 A3002 RMK A01 T01610093  RH  064%=      5-min Rain = 0
KDC1 111109Z 30008KT 16/09 A3002 RMK A01 T01600093  RH  064%=      5-min Rain = 0
KDC1 111110Z 30008KT 16/09 A3002 RMK A01 T01600093  RH  064%=      5-min Rain = 0
KDC1 111111Z 29008KT 16/09 A3002 RMK A01 T01600093  RH  064%=      5-min Rain = 0
KDC1 111112Z 29008KT 16/09 A3002 RMK A01 T01620093  RH  063%=      5-min Rain = 0
KDC1 111113Z 29007KT 16/09 A3002 RMK A01 T01640093  RH  063%=      5-min Rain = 0
KDC1 111114Z 29007KT 17/09 A3002 RMK A01 T01650093  RH  062%=      5-min Rain = 0
KDC1 111115Z 30007KT 16/09 A3002 RMK A01 T01640093  RH  063%=      5-min Rain = 0
KDC1 111116Z 30007KT 16/09 A3002 RMK A01 T01630093  RH  063%=      5-min Rain = 0
KDC1 111117Z 31007KT 16/09 A3002 RMK A01 T01630093  RH  063%=      5-min Rain = 0
KDC1 111118Z 31008KT 16/09 A3002 RMK A01 T01630093  RH  063%=      5-min Rain = 0
KDC1 111119Z 33006KT 16/09 A3002 RMK A01 T01630093  RH  063%=      5-min Rain = 0
KDC1 111120Z 34006KT 16/09 A3002 RMK A01 T01590090  RH  064%=      5-min Rain = 0
KDC1 111121Z 34005KT 15/09 A3002 RMK A01 T01540089  RH  065%=      5-min Rain = 0
KDC1 111122Z 34006KT 15/09 A3002 RMK A01 T01500087  RH  066%=      5-min Rain = 0
KDC1 111123Z 33006KT 15/09 A3002 RMK A01 T01470086  RH  067%=      5-min Rain = 0
KDC1 111124Z 33006KT 15/09 A3002 RMK A01 T01450086  RH  068%=      5-min Rain = 0
KDC1 111125Z 33005KT 14/09 A3002 RMK A01 T01430086  RH  069%=      5-min Rain = 0
KDC1 111126Z 32006KT 14/09 A3003 RMK A01 T01410086  RH  070%=      5-min Rain = 0
KDC1 111127Z 32006KT 14/09 A3002 RMK A01 T01400086  RH  070%=      5-min Rain = 0
KDC1 111128Z 34006KT 14/09 A3002 RMK A01 T01400087  RH  070%=      5-min Rain = 0
KDC1 111129Z 33005KT 14/09 A3003 RMK A01 T01400087  RH  070%=      5-min Rain = 0
KDC1 111130Z 33007KT 14/09 A3003 RMK A01 T01410087  RH  070%=      5-min Rain = 0
KDC1 111131Z 34007KT 14/09 A3003 RMK A01 T01400087  RH  070%=      5-min Rain = 0
KDC1 111132Z 34008KT 14/09 A3003 RMK A01 T01390087  RH  071%=      5-min Rain = 0
KDC1 111133Z 33008KT 14/09 A3003 RMK A01 T01380087  RH  071%=      5-min Rain = 0
KDC1 111134Z 33008KT 14/09 A3003 RMK A01 T01380087  RH  071%=      5-min Rain = 0
KDC1 111135Z 33009KT 14/09 A3003 RMK A01 T01370087  RH  071%=      5-min Rain = 0
KDC1 111136Z 32008KT 14/09 A3003 RMK A01 T01380087  RH  072%=      5-min Rain = 0
KDC1 111137Z 32010KT 14/09 A3003 RMK A01 T01400089  RH  071%=      5-min Rain = 0
KDC1 111138Z 31010KT 14/09 A3003 RMK A01 T01440091  RH  070%=      5-min Rain = 0
KDC1 111139Z 30010KT 15/09 A3003 RMK A01 T01480092  RH  069%=      5-min Rain = 0
KDC1 111140Z 30009KT 15/09 A3003 RMK A01 T01520093  RH  068%=      5-min Rain = 0
KDC1 111141Z 29008KT 16/09 A3003 RMK A01 T01550093  RH  067%=      5-min Rain = 0
KDC1 111142Z 31007KT 16/09 A3003 RMK A01 T01560094  RH  066%=      5-min Rain = 0
KDC1 111143Z 34007KT 16/09 A3003 RMK A01 T01560091  RH  065%=      5-min Rain = 0
KDC1 111144Z 35007KT 15/09 A3003 RMK A01 T01540087  RH  065%=      5-min Rain = 0
KDC1 111145Z 35007KT 15/09 A3003 RMK A01 T01480085  RH  066%=      5-min Rain = 0
KDC1 111146Z 35006KT 14/09 A3003 RMK A01 T01440085  RH  068%=      5-min Rain = 0
KDC1 111147Z 35006KT 14/08 A3003 RMK A01 T01410084  RH  069%=      5-min Rain = 0
KDC1 111148Z 35007KT 14/08 A3003 RMK A01 T01390084  RH  069%=      5-min Rain = 0
KDC1 111149Z 35006KT 14/08 A3003 RMK A01 T01390084  RH  069%=      5-min Rain = 0
KDC1 111150Z 36008KT 14/08 A3003 RMK A01 T01390083  RH  069%=      5-min Rain = 0
KDC1 111151Z 36008KT 14/08 A3003 RMK A01 T01410083  RH  068%=      5-min Rain = 0
KDC1 111152Z 33004KT 14/08 A3003 RMK A01 T01430083  RH  067%=      5-min Rain = 0
KDC1 111153Z 00005KT 14/08 A3004 RMK A01 T01410083  RH  068%=      5-min Rain = 0
KDC1 111154Z 35006KT 14/08 A3004 RMK A01 T01400083  RH  068%=      5-min Rain = 0
KDC1 111155Z 00005KT 14/08 A3004 RMK A01 T01400082  RH  068%=      5-min Rain = 0
KDC1 111156Z 01005KT 14/08 A3004 RMK A01 T01410081  RH  067%=      5-min Rain = 0
KDC1 111157Z 01007KT 14/08 A3004 RMK A01 T01410081  RH  067%=      5-min Rain = 0
KDC1 111158Z 01006KT 14/08 A3004 RMK A01 T01420080  RH  067%=      5-min Rain = 0
KDC1 111159Z 01005KT 14/08 A3004 RMK A01 T01420080  RH  066%=      5-min Rain = 0
KDC1 111200Z 02004KT 14/08 A3004 RMK A01 T01420081  RH  067%=      5-min Rain = 0
KDC1 111201Z 02003KT 14/08 A3004 RMK A01 T01410081  RH  067%=      5-min Rain = 0
KDC1 111202Z 01003KT 14/08 A3004 RMK A01 T01390081  RH  068%=      5-min Rain = 0
KDC1 111203Z 01003KT 14/08 A3004 RMK A01 T01390081  RH  068%=      5-min Rain = 0
KDC1 111204Z 01004KT 14/08 A3004 RMK A01 T01380081  RH  069%=      5-min Rain = 0
KDC1 111205Z 01003KT 14/08 A3004 RMK A01 T01370081  RH  069%=      5-min Rain = 0
KDC1 111206Z 34002KT 14/08 A3004 RMK A01 T01360080  RH  069%=      5-min Rain = 0
KDC1 111207Z 33003KT 14/08 A3005 RMK A01 T01350080  RH  069%=      5-min Rain = 0
KDC1 111208Z 35003KT 14/08 A3005 RMK A01 T01350080  RH  069%=      5-min Rain = 0
KDC1 111209Z 03003KT 13/08 A3004 RMK A01 T01340080  RH  070%=      5-min Rain = 0
KDC1 111210Z 02004KT 13/08 A3004 RMK A01 T01340080  RH  070%=      5-min Rain = 0
KDC1 111211Z 02004KT 13/08 A3004 RMK A01 T01330079  RH  070%=      5-min Rain = 0
KDC1 111212Z 01005KT 13/08 A3004 RMK A01 T01330079  RH  070%=      5-min Rain = 0
KDC1 111213Z 35005KT 13/08 A3005 RMK A01 T01320079  RH  070%=      5-min Rain = 0
KDC1 111214Z 00003KT 13/08 A3005 RMK A01 T01330079  RH  070%=      5-min Rain = 0
KDC1 111215Z 35003KT 13/08 A3005 RMK A01 T01330078  RH  069%=      5-min Rain = 0
KDC1 111216Z 01003KT 13/08 A3005 RMK A01 T01330078  RH  069%=      5-min Rain = 0
KDC1 111217Z 02004KT 13/08 A3005 RMK A01 T01330079  RH  069%=      5-min Rain = 0
KDC1 111218Z 01003KT 13/08 A3005 RMK A01 T01330079  RH  070%=      5-min Rain = 0
KDC1 111219Z 35002KT 13/08 A3005 RMK A01 T01320079  RH  070%=      5-min Rain = 0
KDC1 111220Z 35002KT 13/08 A3005 RMK A01 T01320079  RH  070%=      5-min Rain = 0
KDC1 111221Z 35002KT 13/08 A3005 RMK A01 T01320079  RH  070%=      5-min Rain = 0
KDC1 111222Z 01002KT 13/08 A3005 RMK A01 T01320079  RH  070%=      5-min Rain = 0
KDC1 111223Z 03003KT 13/08 A3005 RMK A01 T01320079  RH  070%=      5-min Rain = 0
KDC1 111224Z 02002KT 13/08 A3005 RMK A01 T01320079  RH  070%=      5-min Rain = 0
KDC1 111225Z 01002KT 13/08 A3005 RMK A01 T01310079  RH  071%=      5-min Rain = 0
KDC1 111226Z 00002KT 13/08 A3005 RMK A01 T01310079  RH  071%=      5-min Rain = 0
KDC1 111227Z 02002KT 13/08 A3005 RMK A01 T01310079  RH  071%=      5-min Rain = 0
KDC1 111228Z 02003KT 13/08 A3005 RMK A01 T01300079  RH  071%=      5-min Rain = 0
KDC1 111229Z 01003KT 13/08 A3005 RMK A01 T01300079  RH  071%=      5-min Rain = 0
KDC1 111230Z 03003KT 13/08 A3005 RMK A01 T01290079  RH  071%=      5-min Rain = 0
KDC1 111231Z 03003KT 13/08 A3005 RMK A01 T01290079  RH  072%=      5-min Rain = 0
KDC1 111232Z 03002KT 13/08 A3005 RMK A01 T01280079  RH  072%=      5-min Rain = 0
KDC1 111233Z 03003KT 13/08 A3005 RMK A01 T01280079  RH  072%=      5-min Rain = 0
KDC1 111234Z 01003KT 13/08 A3005 RMK A01 T01280079  RH  072%=      5-min Rain = 0
KDC1 111235Z 00003KT 13/08 A3005 RMK A01 T01270079  RH  072%=      5-min Rain = 0
KDC1 111236Z 36003KT 13/08 A3005 RMK A01 T01270079  RH  073%=      5-min Rain = 0
KDC1 111237Z 36003KT 13/08 A3005 RMK A01 T01260079  RH  073%=      5-min Rain = 0
KDC1 111238Z 01002KT 13/08 A3005 RMK A01 T01260079  RH  073%=      5-min Rain = 0
KDC1 111239Z 01003KT 13/08 A3005 RMK A01 T01260079  RH  073%=      5-min Rain = 0
KDC1 111240Z 36003KT 13/08 A3005 RMK A01 T01250079  RH  073%=      5-min Rain = 0
KDC1 111241Z 34002KT 13/08 A3005 RMK A01 T01260079  RH  073%=      5-min Rain = 0
KDC1 111242Z 34002KT 13/08 A3005 RMK A01 T01250079  RH  073%=      5-min Rain = 0
KDC1 111243Z 00002KT 13/08 A3005 RMK A01 T01250079  RH  073%=      5-min Rain = 0
KDC1 111244Z 01003KT 13/08 A3005 RMK A01 T01250079  RH  073%=      5-min Rain = 0
KDC1 111245Z 00003KT 13/08 A3006 RMK A01 T01250079  RH  073%=      5-min Rain = 0
KDC1 111246Z 36002KT 13/08 A3006 RMK A01 T01260079  RH  073%=      5-min Rain = 0
KDC1 111247Z 35002KT 13/08 A3006 RMK A01 T01250078  RH  073%=      5-min Rain = 0
KDC1 111248Z 34002KT 13/08 A3006 RMK A01 T01250078  RH  073%=      5-min Rain = 0
KDC1 111249Z 35003KT 13/08 A3006 RMK A01 T01250079  RH  073%=      5-min Rain = 0
KDC1 111250Z 00002KT 13/08 A3006 RMK A01 T01250079  RH  074%=      5-min Rain = 0
KDC1 111251Z 35002KT 12/08 A3006 RMK A01 T01240078  RH  074%=      5-min Rain = 0
KDC1 111252Z 33002KT 12/08 A3006 RMK A01 T01230079  RH  074%=      5-min Rain = 0
KDC1 111253Z 35002KT 12/08 A3006 RMK A01 T01220078  RH  074%=      5-min Rain = 0
KDC1 111254Z 35001KT 12/08 A3006 RMK A01 T01210078  RH  075%=      5-min Rain = 0
KDC1 111255Z 33002KT 12/08 A3006 RMK A01 T01210078  RH  075%=      5-min Rain = 0
KDC1 111256Z 32001KT 12/08 A3006 RMK A01 T01200078  RH  075%=      5-min Rain = 0
KDC1 111257Z 31001KT 12/08 A3006 RMK A01 T01200078  RH  075%=      5-min Rain = 0
KDC1 111258Z 29001KT 12/08 A3006 RMK A01 T01200078  RH  075%=      5-min Rain = 0
KDC1 111259Z 28002KT 12/08 A3006 RMK A01 T01200078  RH  075%=      5-min Rain = 0
KDC1 111300Z 27002KT 12/08 A3007 RMK A01 T01210078  RH  075%=      5-min Rain = 0
KDC1 111301Z 27002KT 12/08 A3007 RMK A01 T01210078  RH  075%=      5-min Rain = 0
KDC1 111302Z 26002KT 12/08 A3007 RMK A01 T01220078  RH  075%=      5-min Rain = 0
KDC1 111303Z 25002KT 12/08 A3007 RMK A01 T01230078  RH  074%=      5-min Rain = 0
KDC1 111304Z 25002KT 12/08 A3007 RMK A01 T01230078  RH  074%=      5-min Rain = 0
KDC1 111305Z 25003KT 12/08 A3007 RMK A01 T01240079  RH  074%=      5-min Rain = 0
KDC1 111306Z 24003KT 12/08 A3007 RMK A01 T01240079  RH  074%=      5-min Rain = 0
KDC1 111307Z 24003KT 12/08 A3006 RMK A01 T01240079  RH  074%=      5-min Rain = 0
KDC1 111308Z 25002KT 12/08 A3007 RMK A01 T01240079  RH  074%=      5-min Rain = 0
KDC1 111309Z 26002KT 12/08 A3007 RMK A01 T01240080  RH  074%=      5-min Rain = 0
KDC1 111310Z 26003KT 12/08 A3007 RMK A01 T01230080  RH  075%=      5-min Rain = 0
KDC1 111311Z 26003KT 12/08 A3007 RMK A01 T01220080  RH  075%=      5-min Rain = 0
KDC1 111312Z 27003KT 12/08 A3007 RMK A01 T01210080  RH  076%=      5-min Rain = 0
KDC1 111313Z 26002KT 12/08 A3007 RMK A01 T01210079  RH  076%=      5-min Rain = 0
KDC1 111314Z 26001KT 12/08 A3007 RMK A01 T01210080  RH  076%=      5-min Rain = 0
KDC1 111315Z 26001KT 12/08 A3007 RMK A01 T01210079  RH  076%=      5-min Rain = 0
KDC1 111316Z 26002KT 12/08 A3007 RMK A01 T01210079  RH  076%=      5-min Rain = 0
KDC1 111317Z 27002KT 12/08 A3007 RMK A01 T01210079  RH  075%=      5-min Rain = 0
KDC1 111318Z 28002KT 12/08 A3007 RMK A01 T01220079  RH  075%=      5-min Rain = 0
KDC1 111319Z 27002KT 12/08 A3007 RMK A01 T01220079  RH  075%=      5-min Rain = 0
KDC1 111320Z 27003KT 12/08 A3007 RMK A01 T01220079  RH  075%=      5-min Rain = 0
KDC1 111321Z 27003KT 12/08 A3007 RMK A01 T01230080  RH  075%=      5-min Rain = 0
KDC1 111322Z 27004KT 13/08 A3007 RMK A01 T01250080  RH  074%=      5-min Rain = 0
KDC1 111323Z 26004KT 12/08 A3007 RMK A01 T01240079  RH  074%=      5-min Rain = 0
KDC1 111324Z 27004KT 12/08 A3007 RMK A01 T01240080  RH  074%=      5-min Rain = 0
KDC1 111325Z 27004KT 12/08 A3007 RMK A01 T01240080  RH  074%=      5-min Rain = 0
KDC1 111326Z 28004KT 13/08 A3007 RMK A01 T01250080  RH  074%=      5-min Rain = 0
KDC1 111327Z 28004KT 13/08 A3007 RMK A01 T01250080  RH  074%=      5-min Rain = 0
KDC1 111328Z 27004KT 13/08 A3007 RMK A01 T01260080  RH  074%=      5-min Rain = 0
KDC1 111329Z 27004KT 13/08 A3007 RMK A01 T01260081  RH  074%=      5-min Rain = 0
KDC1 111330Z 27004KT 13/08 A3007 RMK A01 T01250081  RH  074%=      5-min Rain = 0
KDC1 111331Z 28004KT 13/08 A3007 RMK A01 T01250082  RH  075%=      5-min Rain = 0
KDC1 111332Z 28005KT 12/08 A3007 RMK A01 T01240082  RH  075%=      5-min Rain = 0
KDC1 111333Z 28005KT 12/08 A3007 RMK A01 T01230082  RH  076%=      5-min Rain = 0
KDC1 111334Z 28005KT 12/08 A3007 RMK A01 T01230081  RH  076%=      5-min Rain = 0
KDC1 111335Z 28004KT 12/08 A3007 RMK A01 T01210081  RH  076%=      5-min Rain = 0
KDC1 111336Z 28005KT 12/08 A3007 RMK A01 T01190081  RH  077%=      5-min Rain = 0
KDC1 111337Z 29005KT 12/08 A3008 RMK A01 T01180081  RH  078%=      5-min Rain = 0
KDC1 111338Z 29005KT 12/08 A3008 RMK A01 T01170081  RH  079%=      5-min Rain = 0
KDC1 111339Z 29005KT 12/08 A3008 RMK A01 T01160082  RH  079%=      5-min Rain = 0
KDC1 111340Z 29005KT 12/08 A3008 RMK A01 T01160082  RH  079%=      5-min Rain = 0
KDC1 111341Z 28006KT 12/08 A3008 RMK A01 T01170083  RH  080%=      5-min Rain = 0
KDC1 111342Z 29006KT 12/08 A3008 RMK A01 T01180083  RH  079%=      5-min Rain = 0
KDC1 111343Z 29006KT 12/08 A3008 RMK A01 T01190084  RH  079%=      5-min Rain = 0
KDC1 111344Z 30005KT 12/08 A3008 RMK A01 T01200084  RH  078%=      5-min Rain = 0
KDC1 111345Z 31005KT 12/08 A3008 RMK A01 T01210084  RH  078%=      5-min Rain = 0
KDC1 111346Z 31005KT 12/08 A3009 RMK A01 T01210084  RH  078%=      5-min Rain = 0
KDC1 111347Z 32005KT 12/09 A3009 RMK A01 T01210085  RH  078%=      5-min Rain = 0
KDC1 111348Z 32005KT 12/09 A3009 RMK A01 T01220085  RH  078%=      5-min Rain = 0
KDC1 111349Z 32005KT 12/09 A3009 RMK A01 T01230085  RH  077%=      5-min Rain = 0
KDC1 111350Z 31004KT 12/09 A3009 RMK A01 T01240086  RH  077%=      5-min Rain = 0
KDC1 111351Z 31004KT 13/09 A3009 RMK A01 T01250086  RH  077%=      5-min Rain = 0
KDC1 111352Z 31005KT 13/09 A3009 RMK A01 T01260086  RH  077%=      5-min Rain = 0
KDC1 111353Z 31004KT 13/09 A3009 RMK A01 T01260086  RH  077%=      5-min Rain = 0
KDC1 111354Z 30004KT 13/09 A3009 RMK A01 T01260086  RH  076%=      5-min Rain = 0
KDC1 111355Z 30005KT 13/09 A3009 RMK A01 T01260086  RH  076%=      5-min Rain = 0
KDC1 111356Z 30005KT 13/09 A3009 RMK A01 T01270087  RH  077%=      5-min Rain = 0
KDC1 111357Z 30005KT 13/09 A3009 RMK A01 T01270086  RH  076%=      5-min Rain = 0
KDC1 111358Z 31005KT 13/09 A3009 RMK A01 T01270087  RH  076%=      5-min Rain = 0
KDC1 111359Z 31005KT 13/09 A3009 RMK A01 T01270087  RH  076%=      5-min Rain = 0
KDC1 111400Z 31005KT 13/09 A3009 RMK A01 T01270087  RH  076%=      5-min Rain = 0
KDC1 111401Z 30004KT 13/09 A3009 RMK A01 T01280087  RH  076%=      5-min Rain = 0
KDC1 111402Z 30004KT 13/09 A3009 RMK A01 T01280088  RH  076%=      5-min Rain = 0
KDC1 111403Z 31004KT 13/09 A301 RMK A01 T01280087  RH  076%=      5-min Rain = 0
KDC1 111404Z 32005KT 13/09 A301 RMK A01 T01280087  RH  076%=      5-min Rain = 0
KDC1 111405Z 33006KT 13/09 A301 RMK A01 T01280087  RH  076%=      5-min Rain = 0
KDC1 111406Z 33006KT 13/09 A301 RMK A01 T01290087  RH  076%=      5-min Rain = 0
KDC1 111407Z 34006KT 13/09 A301 RMK A01 T01290087  RH  075%=      5-min Rain = 0
KDC1 111408Z 34006KT 13/09 A3009 RMK A01 T01300087  RH  075%=      5-min Rain = 0
KDC1 111409Z 34005KT 13/09 A3009 RMK A01 T01300088  RH  075%=      5-min Rain = 0
KDC1 111410Z 34005KT 13/09 A3009 RMK A01 T01300088  RH  076%=      5-min Rain = 0
KDC1 111411Z 34005KT 13/09 A3009 RMK A01 T01300088  RH  076%=      5-min Rain = 0
KDC1 111412Z 34005KT 13/09 A3009 RMK A01 T01300089  RH  076%=      5-min Rain = 0
KDC1 111413Z 34005KT 13/09 A3009 RMK A01 T01300088  RH  076%=      5-min Rain = 0
KDC1 111414Z 34005KT 13/09 A301 RMK A01 T01300089  RH  076%=      5-min Rain = 0
KDC1 111415Z 34005KT 13/09 A301 RMK A01 T01300089  RH  076%=      5-min Rain = 0
KDC1 111416Z 34005KT 13/09 A301 RMK A01 T01300089  RH  076%=      5-min Rain = 0
KDC1 111417Z 34005KT 13/09 A301 RMK A01 T01300089  RH  076%=      5-min Rain = 0
KDC1 111418Z 34005KT 13/09 A301 RMK A01 T01300089  RH  076%=      5-min Rain = 0
KDC1 111419Z 33005KT 13/09 A301 RMK A01 T01300088  RH  076%=      5-min Rain = 0
KDC1 111420Z 34004KT 13/09 A301 RMK A01 T01300088  RH  076%=      5-min Rain = 0
KDC1 111421Z 34005KT 13/09 A301 RMK A01 T01300088  RH  075%=      5-min Rain = 0
KDC1 111422Z 34004KT 13/09 A301 RMK A01 T01310088  RH  075%=      5-min Rain = 0
KDC1 111423Z 34004KT 13/09 A301 RMK A01 T01310087  RH  075%=      5-min Rain = 0
KDC1 111424Z 34004KT 13/09 A301 RMK A01 T01310086  RH  074%=      5-min Rain = 0
KDC1 111425Z 34004KT 13/09 A301 RMK A01 T01320086  RH  074%=      5-min Rain = 0
KDC1 111426Z 34004KT 13/09 A301 RMK A01 T01320086  RH  074%=      5-min Rain = 0
KDC1 111427Z 34004KT 13/09 A301 RMK A01 T01320086  RH  073%=      5-min Rain = 0
KDC1 111428Z 34005KT 13/09 A301 RMK A01 T01330086  RH  073%=      5-min Rain = 0
KDC1 111429Z 34005KT 13/09 A301 RMK A01 T01320086  RH  074%=      5-min Rain = 0
KDC1 111430Z 33004KT 13/09 A301 RMK A01 T01320086  RH  074%=      5-min Rain = 0
KDC1 111431Z 33005KT 13/09 A301 RMK A01 T01320086  RH  074%=      5-min Rain = 0
KDC1 111432Z 33004KT 13/09 A301 RMK A01 T01320087  RH  074%=      5-min Rain = 0
KDC1 111433Z 33004KT 13/09 A301 RMK A01 T01320086  RH  074%=      5-min Rain = 0
KDC1 111434Z 33004KT 13/09 A301 RMK A01 T01320086  RH  073%=      5-min Rain = 0
KDC1 111435Z 33004KT 13/09 A301 RMK A01 T01320086  RH  073%=      5-min Rain = 0
KDC1 111436Z 32004KT 13/09 A301 RMK A01 T01320086  RH  073%=      5-min Rain = 0
KDC1 111437Z 33004KT 13/09 A301 RMK A01 T01320086  RH  073%=      5-min Rain = 0
KDC1 111438Z 33004KT 13/09 A301 RMK A01 T01320086  RH  074%=      5-min Rain = 0
KDC1 111439Z 33004KT 13/09 A301 RMK A01 T01320087  RH  074%=      5-min Rain = 0
KDC1 111440Z 32004KT 13/09 A301 RMK A01 T01320087  RH  074%=      5-min Rain = 0
KDC1 111441Z 32004KT 13/09 A301 RMK A01 T01320088  RH  074%=      5-min Rain = 0
KDC1 111442Z 32004KT 13/09 A301 RMK A01 T01320088  RH  074%=      5-min Rain = 0
KDC1 111443Z 32004KT 13/09 A301 RMK A01 T01320088  RH  075%=      5-min Rain = 0
KDC1 111444Z 32004KT 13/09 A3011 RMK A01 T01320088  RH  075%=      5-min Rain = 0
KDC1 111445Z 32004KT 13/09 A3011 RMK A01 T01320088  RH  075%=      5-min Rain = 0
KDC1 111446Z 32004KT 13/09 A3011 RMK A01 T01320088  RH  075%=      5-min Rain = 0
KDC1 111447Z 32004KT 13/09 A3011 RMK A01 T01320088  RH  075%=      5-min Rain = 0
KDC1 111448Z 31004KT 13/09 A3011 RMK A01 T01320088  RH  075%=      5-min Rain = 0
KDC1 111449Z 31004KT 13/09 A3011 RMK A01 T01320088  RH  075%=      5-min Rain = 0
KDC1 111450Z 31003KT 13/09 A3011 RMK A01 T01330089  RH  075%=      5-min Rain = 0
KDC1 111451Z 31003KT 13/09 A3011 RMK A01 T01330089  RH  075%=      5-min Rain = 0
KDC1 111452Z 31002KT 13/09 A3011 RMK A01 T01330089  RH  075%=      5-min Rain = 0
KDC1 111453Z 32002KT 13/09 A3011 RMK A01 T01330089  RH  075%=      5-min Rain = 0
KDC1 111454Z 33002KT 13/09 A3012 RMK A01 T01330089  RH  075%=      5-min Rain = 0
KDC1 111455Z 34003KT 13/09 A3012 RMK A01 T01330089  RH  075%=      5-min Rain = 0
KDC1 111456Z 35003KT 13/09 A3012 RMK A01 T01330089  RH  075%=      5-min Rain = 0
KDC1 111457Z 35004KT 13/09 A3012 RMK A01 T01330089  RH  075%=      5-min Rain = 0
KDC1 111458Z 35004KT 13/09 A3012 RMK A01 T01340090  RH  075%=      5-min Rain = 0
KDC1 111459Z 34004KT 13/09 A3012 RMK A01 T01340091  RH  075%=      5-min Rain = 0
KDC1 111500Z 34004KT 13/09 A3012 RMK A01 T01340091  RH  075%=      5-min Rain = 0
KDC1 111501Z 33004KT 13/09 A3012 RMK A01 T01340091  RH  075%=      5-min Rain = 0
KDC1 111502Z 32004KT 13/09 A3012 RMK A01 T01340091  RH  075%=      5-min Rain = 0
KDC1 111503Z 31004KT 13/09 A3012 RMK A01 T01340092  RH  075%=      5-min Rain = 0
KDC1 111504Z 31004KT 13/09 A3012 RMK A01 T01340093  RH  076%=      5-min Rain = 0
KDC1 111505Z 30004KT 13/09 A3012 RMK A01 T01340094  RH  076%=      5-min Rain = 0
KDC1 111506Z 29004KT 13/09 A3012 RMK A01 T01340094  RH  077%=      5-min Rain = 0
KDC1 111507Z 29004KT 13/09 A3012 RMK A01 T01340094  RH  076%=      5-min Rain = 0
KDC1 111508Z 27005KT 13/09 A3012 RMK A01 T01340094  RH  077%=      5-min Rain = 0
KDC1 111509Z 27005KT 13/10 A3012 RMK A01 T01340095  RH  077%=      5-min Rain = 0
KDC1 111510Z 27005KT 14/10 A3012 RMK A01 T01350096  RH  077%=      5-min Rain = 0
KDC1 111511Z 27006KT 14/10 A3012 RMK A01 T01350097  RH  078%=      5-min Rain = 0
KDC1 111512Z 27006KT 14/10 A3012 RMK A01 T01350099  RH  079%=      5-min Rain = 0
KDC1 111513Z 28006KT 14/10 A3012 RMK A01 T01350100  RH  079%=      5-min Rain = 0
KDC1 111514Z 28005KT 14/10 A3012 RMK A01 T01350100  RH  080%=      5-min Rain = 0
KDC1 111515Z 29005KT 14/10 A3012 RMK A01 T01360100  RH  079%=      5-min Rain = 0
KDC1 111516Z 28005KT 14/10 A3012 RMK A01 T01370099  RH  078%=      5-min Rain = 0
KDC1 111517Z 29005KT 14/10 A3012 RMK A01 T01380099  RH  077%=      5-min Rain = 0
KDC1 111518Z 29005KT 14/10 A3012 RMK A01 T01400099  RH  076%=      5-min Rain = 0
KDC1 111519Z 29005KT 14/10 A3012 RMK A01 T01410099  RH  076%=      5-min Rain = 0
KDC1 111520Z 32006KT 14/10 A3012 RMK A01 T01420100  RH  076%=      5-min Rain = 0
KDC1 111521Z 33006KT 14/10 A3013 RMK A01 T01430100  RH  075%=      5-min Rain = 0
KDC1 111522Z 34009KT 14/10 A3013 RMK A01 T01440101  RH  075%=      5-min Rain = 0
KDC1 111523Z 34009KT 14/10 A3013 RMK A01 T01440100  RH  075%=      5-min Rain = 0
KDC1 111524Z 35009KT 14/10 A3013 RMK A01 T01440098  RH  074%=      5-min Rain = 0
KDC1 111525Z 00009KT 15/10 A3014 RMK A01 T01450098  RH  073%=      5-min Rain = 0
KDC1 111526Z 36009KT 15/10 A3014 RMK A01 T01460097  RH  072%=      5-min Rain = 0
KDC1 111527Z 00008KT 15/10 A3014 RMK A01 T01460097  RH  072%=      5-min Rain = 0
KDC1 111528Z 01008KT 15/10 A3014 RMK A01 T01470098  RH  073%=      5-min Rain = 0
KDC1 111529Z 00009KT 15/10 A3014 RMK A01 T01460098  RH  072%=      5-min Rain = 0
KDC1 111530Z 01008KT 15/10 A3014 RMK A01 T01470098  RH  073%=      5-min Rain = 0
KDC1 111531Z 01009KT 15/10 A3014 RMK A01 T01460098  RH  073%=      5-min Rain = 0
KDC1 111532Z 01007KT 15/10 A3014 RMK A01 T01460098  RH  073%=      5-min Rain = 0
KDC1 111533Z 01007KT 15/10 A3014 RMK A01 T01460099  RH  073%=      5-min Rain = 0
KDC1 111534Z 01009KT 15/10 A3014 RMK A01 T01470099  RH  073%=      5-min Rain = 0
KDC1 111535Z 02009KT 15/10 A3014 RMK A01 T01470098  RH  073%=      5-min Rain = 0
KDC1 111536Z 02011KT 15/10 A3014 RMK A01 T01480098  RH  072%=      5-min Rain = 0
KDC1 111537Z 02010KT 15/09 A3014 RMK A01 T01470094  RH  070%=      5-min Rain = 0
KDC1 111538Z 02011KT 15/09 A3015 RMK A01 T01470090  RH  069%=      5-min Rain = 0
KDC1 111539Z 01012KT 15/08 A3015 RMK A01 T01450084  RH  067%=      5-min Rain = 0
KDC1 111540Z 01012KT 14/08 A3015 RMK A01 T01440075  RH  063%=      5-min Rain = 0
KDC1 111541Z 02011KT 14/07 A3015 RMK A01 T01420072  RH  063%=      5-min Rain = 0
KDC1 111542Z 01011G16KT 14/07 A3015 RMK A01 T01420071  RH  063%=      5-min Rain = 0
KDC1 111543Z 01014KT 14/07 A3015 RMK A01 T01410068  RH  061%=      5-min Rain = 0
KDC1 111544Z 01011G16KT 14/07 A3015 RMK A01 T01410068  RH  062%=      5-min Rain = 0
KDC1 111545Z 01014KT 14/07 A3015 RMK A01 T01410067  RH  061%=      5-min Rain = 0
KDC1 111546Z 00012G17KT 14/07 A3015 RMK A01 T01410065  RH  060%=      5-min Rain = 0
KDC1 111547Z 01013KT 14/07 A3015 RMK A01 T01410065  RH  060%=      5-min Rain = 0
KDC1 111548Z 01014KT 14/06 A3015 RMK A01 T01400064  RH  060%=      5-min Rain = 0
KDC1 111549Z 01014G21KT 14/06 A3015 RMK A01 T01400063  RH  060%=      5-min Rain = 0
KDC1 111550Z 02015KT 14/06 A3015 RMK A01 T01380061  RH  059%=      5-min Rain = 0
KDC1 111551Z 01015KT 14/06 A3015 RMK A01 T01360059  RH  060%=      5-min Rain = 0
KDC1 111552Z 01012G17KT 14/06 A3015 RMK A01 T01350060  RH  060%=      5-min Rain = 0
KDC1 111553Z 01015G20KT 13/06 A3015 RMK A01 T01340060  RH  061%=      5-min Rain = 0
KDC1 111554Z 01017G23KT 13/06 A3015 RMK A01 T01330059  RH  061%=      5-min Rain = 0
KDC1 111555Z 01016G22KT 13/06 A3015 RMK A01 T01320058  RH  061%=      5-min Rain = 0
KDC1 111556Z 01014KT 13/06 A3015 RMK A01 T01320059  RH  061%=      5-min Rain = 0
KDC1 111557Z 01019KT 13/06 A3015 RMK A01 T01320058  RH  061%=      5-min Rain = 0
KDC1 111558Z 01016KT 13/06 A3016 RMK A01 T01320056  RH  060%=      5-min Rain = 0
KDC1 111559Z 02015KT 13/06 A3016 RMK A01 T01330058  RH  061%=      5-min Rain = 0
KDC1 111600Z 01013KT 13/06 A3016 RMK A01 T01330058  RH  061%=      5-min Rain = 0
KDC1 111601Z 01014KT 13/06 A3016 RMK A01 T01330058  RH  060%=      5-min Rain = 0
KDC1 111602Z 00016G22KT 13/06 A3016 RMK A01 T01330057  RH  060%=      5-min Rain = 0
KDC1 111603Z 01021KT 13/05 A3016 RMK A01 T01300052  RH  059%=      5-min Rain = 0
KDC1 111604Z 01017G23KT 13/05 A3016 RMK A01 T01290052  RH  059%=      5-min Rain = 0
KDC1 111605Z 01019G25KT 13/05 A3016 RMK A01 T01270051  RH  060%=      5-min Rain = 0
KDC1 111606Z 01019G24KT 13/05 A3017 RMK A01 T01270049  RH  059%=      5-min Rain = 0
KDC1 111607Z 01018G25KT 13/05 A3017 RMK A01 T01260048  RH  059%=      5-min Rain = 0
KDC1 111608Z 01022G29KT 13/05 A3017 RMK A01 T01250046  RH  059%=      5-min Rain = 0
KDC1 111609Z 01020G26KT 13/05 A3017 RMK A01 T01250046  RH  059%=      5-min Rain = 0
KDC1 111610Z 01022G27KT 12/05 A3017 RMK A01 T01240045  RH  058%=      5-min Rain = 0
KDC1 111611Z 01020KT 12/05 A3017 RMK A01 T01230045  RH  059%=      5-min Rain = 0
KDC1 111612Z 01020KT 12/04 A3017 RMK A01 T01230044  RH  059%=      5-min Rain = 0
KDC1 111613Z 01018G24KT 12/04 A3018 RMK A01 T01220043  RH  059%=      5-min Rain = 0
KDC1 111614Z 01018G23KT 12/04 A3018 RMK A01 T01210043  RH  059%=      5-min Rain = 0
KDC1 111615Z 01021G26KT 12/04 A3018 RMK A01 T01200042  RH  058%=      5-min Rain = 0
KDC1 111616Z 01019KT 12/04 A3018 RMK A01 T01180039  RH  058%=      5-min Rain = 0
KDC1 111617Z 01020KT 12/04 A3018 RMK A01 T01170040  RH  059%=      5-min Rain = 0
KDC1 111618Z 02018G24KT 12/04 A3018 RMK A01 T01160039  RH  059%=      5-min Rain = 0
KDC1 111619Z 01017KT 12/04 A3018 RMK A01 T01160040  RH  059%=      5-min Rain = 0
KDC1 111620Z 01017KT 12/04 A3018 RMK A01 T01160039  RH  059%=      5-min Rain = 0
KDC1 111621Z 01016G22KT 12/04 A3019 RMK A01 T01160039  RH  059%=      5-min Rain = 0
KDC1 111622Z 01021G26KT 12/04 A3019 RMK A01 T01170039  RH  059%=      5-min Rain = 0
KDC1 111623Z 02017G27KT 12/04 A3019 RMK A01 T01160038  RH  059%=      5-min Rain = 0
KDC1 111624Z 01021G26KT 12/04 A3019 RMK A01 T01150037  RH  059%=      5-min Rain = 0
KDC1 111625Z 02024KT 12/04 A3019 RMK A01 T01150037  RH  059%=      5-min Rain = 0
KDC1 111626Z 02022KT 11/04 A3019 RMK A01 T01140036  RH  059%=      5-min Rain = 0
KDC1 111627Z 01021G26KT 11/04 A3019 RMK A01 T01140037  RH  059%=      5-min Rain = 0
KDC1 111628Z 02019KT 11/04 A3019 RMK A01 T01140037  RH  059%=      5-min Rain = 0
KDC1 111629Z 02021KT 11/04 A302 RMK A01 T01140037  RH  059%=      5-min Rain = 0
KDC1 111630Z 02019G24KT 11/04 A3019 RMK A01 T01140036  RH  059%=      5-min Rain = 0
KDC1 111631Z 02022G29KT 11/04 A302 RMK A01 T01130036  RH  059%=      5-min Rain = 0
KDC1 111632Z 02019KT 11/04 A302 RMK A01 T01130035  RH  058%=      5-min Rain = 0
KDC1 111633Z 02023KT 11/03 A302 RMK A01 T01130034  RH  058%=      5-min Rain = 0
KDC1 111634Z 02020G27KT 11/03 A302 RMK A01 T01120033  RH  058%=      5-min Rain = 0
KDC1 111635Z 02022G27KT 11/03 A302 RMK A01 T01110032  RH  058%=      5-min Rain = 0
KDC1 111636Z 02018KT 11/03 A302 RMK A01 T01100033  RH  059%=      5-min Rain = 0
KDC1 111637Z 01022G27KT 11/03 A302 RMK A01 T01100033  RH  059%=      5-min Rain = 0
KDC1 111638Z 02023G28KT 11/03 A302 RMK A01 T01090031  RH  059%=      5-min Rain = 0
KDC1 111639Z 02022KT 11/03 A302 RMK A01 T01080030  RH  059%=      5-min Rain = 0
KDC1 111640Z 02016G22KT 11/03 A302 RMK A01 T01070031  RH  059%=      5-min Rain = 0
KDC1 111641Z 02019G26KT 11/03 A302 RMK A01 T01080031  RH  059%=      5-min Rain = 0
KDC1 111642Z 02025G32KT 11/03 A302 RMK A01 T01080030  RH  059%=      5-min Rain = 0
KDC1 111643Z 02022G28KT 11/03 A302 RMK A01 T01070029  RH  059%=      5-min Rain = 0
KDC1 111644Z 02027KT 11/03 A302 RMK A01 T01070029  RH  059%=      5-min Rain = 0
KDC1 111645Z 03026G31KT 11/03 A3021 RMK A01 T01060028  RH  058%=      5-min Rain = 0
KDC1 111646Z 02025G33KT 11/03 A3021 RMK A01 T01050028  RH  059%=      5-min Rain = 0
KDC1 111647Z 02023G31KT 11/03 A3021 RMK A01 T01050028  RH  059%=      5-min Rain = 0
KDC1 111648Z 02021G30KT 11/03 A3021 RMK A01 T01050028  RH  059%=      5-min Rain = 0
KDC1 111649Z 02026G31KT 11/03 A3021 RMK A01 T01050027  RH  059%=      5-min Rain = 0
KDC1 111650Z 03027G33KT 10/03 A3021 RMK A01 T01040027  RH  059%=      5-min Rain = 0
KDC1 111651Z 02023KT 10/03 A3021 RMK A01 T01030027  RH  059%=      5-min Rain = 0
KDC1 111652Z 02022G29KT 10/03 A3021 RMK A01 T01030027  RH  059%=      5-min Rain = 0
KDC1 111653Z 02024G30KT 10/03 A3022 RMK A01 T01030027  RH  059%=      5-min Rain = 0
KDC1 111654Z 02026KT 10/03 A3022 RMK A01 T01020026  RH  059%=      5-min Rain = 0
KDC1 111655Z 02024G29KT 10/03 A3022 RMK A01 T01010026  RH  060%=      5-min Rain = 0
KDC1 111656Z 03020KT 10/03 A3022 RMK A01 T01000026  RH  060%=      5-min Rain = 0
KDC1 111657Z 03025G31KT 10/03 A3022 RMK A01 T01010026  RH  060%=      5-min Rain = 0
KDC1 111658Z 02025G31KT 10/03 A3023 RMK A01 T01010025  RH  059%=      5-min Rain = 0
KDC1 111659Z 02022KT 10/03 A3022 RMK A01 T01000026  RH  060%=      5-min Rain = 0
KDC1 111700Z 02022G29KT 10/03 A3022 RMK A01 T01010027  RH  060%=      5-min Rain = 0
KDC1 111701Z 03019G27KT 10/03 A3023 RMK A01 T01000026  RH  060%=      5-min Rain = 0
KDC1 111702Z 02019KT 10/03 A3023 RMK A01 T01010027  RH  060%=      5-min Rain = 0
KDC1 111703Z 02018G24KT 10/03 A3023 RMK A01 T01020027  RH  060%=      5-min Rain = 0
KDC1 111704Z 03022G29KT 10/03 A3023 RMK A01 T01010026  RH  060%=      5-min Rain = 0
KDC1 111705Z 02021G29KT 10/03 A3023 RMK A01 T01010026  RH  060%=      5-min Rain = 0
KDC1 111706Z 02028G34KT 10/03 A3023 RMK A01 T01000025  RH  060%=      5-min Rain = 0
KDC1 111707Z 02024G29KT 10/02 A3023 RMK A01 T00980024  RH  060%=      5-min Rain = 0
KDC1 111708Z 02027G32KT 10/03 A3023 RMK A01 T00980025  RH  060%=      5-min Rain = 0
KDC1 111709Z 03021KT 10/03 A3023 RMK A01 T00980025  RH  060%=      5-min Rain = 0
KDC1 111710Z 02025G32KT 10/03 A3023 RMK A01 T00980025  RH  060%=      5-min Rain = 0
KDC1 111711Z 02026G32KT 10/02 A3023 RMK A01 T00970024  RH  060%=      5-min Rain = 0
KDC1 111712Z 02020G26KT 10/02 A3023 RMK A01 T00960024  RH  061%=      5-min Rain = 0
KDC1 111713Z 03025KT 10/03 A3023 RMK A01 T00970025  RH  061%=      5-min Rain = 0
KDC1 111714Z 03024G29KT 10/02 A3023 RMK A01 T00970023  RH  060%=      5-min Rain = 0
KDC1 111715Z 03024G33KT 10/02 A3024 RMK A01 T00950023  RH  061%=      5-min Rain = 0
KDC1 111716Z 02023G28KT 10/02 A3024 RMK A01 T00950023  RH  061%=      5-min Rain = 0
KDC1 111717Z 02022G32KT 09/02 A3024 RMK A01 T00940024  RH  061%=      5-min Rain = 0
KDC1 111718Z 03025G31KT 09/02 A3024 RMK A01 T00940023  RH  061%=      5-min Rain = 0
KDC1 111719Z 02024KT 09/02 A3024 RMK A01 T00920021  RH  061%=      5-min Rain = 0
KDC1 111720Z 02022G27KT 09/02 A3024 RMK A01 T00920022  RH  062%=      5-min Rain = 0
KDC1 111721Z 02025G33KT 09/02 A3024 RMK A01 T00920022  RH  061%=      5-min Rain = 0
KDC1 111722Z 03027KT 09/02 A3024 RMK A01 T00910021  RH  061%=      5-min Rain = 0
KDC1 111723Z 03026KT 09/02 A3024 RMK A01 T00900020  RH  062%=      5-min Rain = 0
KDC1 111724Z 03024KT 09/02 A3024 RMK A01 T00890021  RH  062%=      5-min Rain = 0
KDC1 111725Z 02024G30KT 09/02 A3024 RMK A01 T00890021  RH  062%=      5-min Rain = 0
KDC1 111726Z 03023G29KT 09/02 A3025 RMK A01 T00900021  RH  062%=      5-min Rain = 0
KDC1 111727Z 03022G29KT 09/02 A3025 RMK A01 T00890020  RH  062%=      5-min Rain = 0
KDC1 111728Z 02020KT 09/02 A3025 RMK A01 T00880020  RH  062%=      5-min Rain = 0
KDC1 111729Z 02019G24KT 09/02 A3025 RMK A01 T00880021  RH  063%=      5-min Rain = 0
KDC1 111730Z 03021G27KT 09/02 A3025 RMK A01 T00890021  RH  062%=      5-min Rain = 0
KDC1 111731Z 03018G26KT 09/02 A3025 RMK A01 T00890021  RH  062%=      5-min Rain = 0
KDC1 111732Z 03019G24KT 09/02 A3025 RMK A01 T00890021  RH  063%=      5-min Rain = 0
KDC1 111733Z 02021G27KT 09/02 A3025 RMK A01 T00890021  RH  062%=      5-min Rain = 0
KDC1 111734Z 02020G27KT 09/02 A3025 RMK A01 T00890020  RH  062%=      5-min Rain = 0
KDC1 111735Z 02020G25KT 09/02 A3025 RMK A01 T00880020  RH  062%=      5-min Rain = 0
KDC1 111736Z 03020G26KT 09/02 A3025 RMK A01 T00890021  RH  062%=      5-min Rain = 0
KDC1 111737Z 03021G26KT 09/02 A3025 RMK A01 T00880020  RH  062%=      5-min Rain = 0
KDC1 111738Z 02018G28KT 09/02 A3025 RMK A01 T00880020  RH  062%=      5-min Rain = 0
KDC1 111739Z 02019G24KT 09/02 A3025 RMK A01 T00880019  RH  062%=      5-min Rain = 0
KDC1 111740Z 02019G24KT 09/02 A3025 RMK A01 T00880020  RH  062%=      5-min Rain = 0
KDC1 111741Z 02016KT 09/02 A3025 RMK A01 T00890020  RH  062%=      5-min Rain = 0
KDC1 111742Z 02019G24KT 09/02 A3026 RMK A01 T00890020  RH  062%=      5-min Rain = 0
KDC1 111743Z 02017G22KT 09/02 A3026 RMK A01 T00900020  RH  061%=      5-min Rain = 0
KDC1 111744Z 02024KT 09/02 A3026 RMK A01 T00910019  RH  061%=      5-min Rain = 0
KDC1 111745Z 02023KT 09/02 A3026 RMK A01 T00910018  RH  060%=      5-min Rain = 0
KDC1 111746Z 02022G30KT 09/02 A3026 RMK A01 T00900018  RH  060%=      5-min Rain = 0
KDC1 111747Z 03023KT 09/02 A3027 RMK A01 T00900017  RH  060%=      5-min Rain = 0
KDC1 111748Z 03020G25KT 09/02 A3026 RMK A01 T00880016  RH  061%=      5-min Rain = 0
KDC1 111749Z 02019G25KT 09/02 A3026 RMK A01 T00870017  RH  061%=      5-min Rain = 0
KDC1 111750Z 03026KT 09/02 A3026 RMK A01 T00880017  RH  061%=      5-min Rain = 0
KDC1 111751Z 02018G24KT 09/02 A3026 RMK A01 T00870016  RH  061%=      5-min Rain = 0
KDC1 111752Z 03022G30KT 09/02 A3026 RMK A01 T00870016  RH  061%=      5-min Rain = 0
KDC1 111753Z 03023G28KT 09/02 A3027 RMK A01 T00870016  RH  061%=      5-min Rain = 0
KDC1 111754Z 03017G22KT 09/02 A3026 RMK A01 T00860015  RH  061%=      5-min Rain = 0
KDC1 111755Z 02019G24KT 09/02 A3027 RMK A01 T00860016  RH  062%=      5-min Rain = 0
KDC1 111756Z 02024G30KT 09/02 A3027 RMK A01 T00860015  RH  061%=      5-min Rain = 0
KDC1 111757Z 02019KT 08/01 A3027 RMK A01 T00840014  RH  062%=      5-min Rain = 0
KDC1 111758Z 02022KT 08/02 A3027 RMK A01 T00830015  RH  062%=      5-min Rain = 0
KDC1 111759Z 03023KT 08/01 A3027 RMK A01 T00830014  RH  062%=      5-min Rain = 0
KDC1 111800Z 02022G28KT 08/01 A3027 RMK A01 T00820014  RH  062%=      5-min Rain = 0
KDC1 111801Z 02020G29KT 08/01 A3027 RMK A01 T00820014  RH  062%=      5-min Rain = 0
KDC1 111802Z 02023G29KT 08/01 A3027 RMK A01 T00820014  RH  062%=      5-min Rain = 0
KDC1 111803Z 02018G24KT 08/02 A3027 RMK A01 T00820015  RH  062%=      5-min Rain = 0
KDC1 111804Z 03020KT 08/02 A3028 RMK A01 T00830015  RH  062%=      5-min Rain = 0
KDC1 111805Z 02020KT 08/02 A3028 RMK A01 T00830015  RH  062%=      5-min Rain = 0
KDC1 111806Z 02021KT 08/01 A3028 RMK A01 T00830014  RH  062%=      5-min Rain = 0
KDC1 111807Z 02022KT 08/01 A3028 RMK A01 T00830014  RH  062%=      5-min Rain = 0
KDC1 111808Z 02022KT 08/01 A3028 RMK A01 T00830014  RH  062%=      5-min Rain = 0
KDC1 111809Z 02022KT 08/01 A3028 RMK A01 T00820014  RH  062%=      5-min Rain = 0
KDC1 111810Z 02021KT 08/01 A3028 RMK A01 T00820014  RH  062%=      5-min Rain = 0
KDC1 111811Z 02022G27KT 08/01 A3028 RMK A01 T00820014  RH  062%=      5-min Rain = 0
KDC1 111812Z 02025KT 08/01 A3028 RMK A01 T00820013  RH  062%=      5-min Rain = 0
KDC1 111813Z 02021G27KT 08/01 A3028 RMK A01 T00810013  RH  062%=      5-min Rain = 0
KDC1 111814Z 02019KT 08/01 A3028 RMK A01 T00810013  RH  062%=      5-min Rain = 0
KDC1 111815Z 02017G23KT 08/01 A3028 RMK A01 T00810014  RH  063%=      5-min Rain = 0
KDC1 111816Z 03021KT 08/01 A3028 RMK A01 T00820014  RH  062%=      5-min Rain = 0
KDC1 111817Z 02020G25KT 08/01 A3028 RMK A01 T00810012  RH  062%=      5-min Rain = 0
KDC1 111818Z 02018KT 08/01 A3028 RMK A01 T00810013  RH  062%=      5-min Rain = 0
KDC1 111819Z 02017G22KT 08/01 A3028 RMK A01 T00810014  RH  062%=      5-min Rain = 0
KDC1 111820Z 02019G24KT 08/01 A3028 RMK A01 T00820013  RH  062%=      5-min Rain = 0
KDC1 111821Z 02023G30KT 08/01 A3029 RMK A01 T00810012  RH  062%=      5-min Rain = 0
KDC1 111822Z 02021G26KT 08/01 A3028 RMK A01 T00800011  RH  062%=      5-min Rain = 0
KDC1 111823Z 02021G27KT 08/01 A3028 RMK A01 T00790012  RH  062%=      5-min Rain = 0
KDC1 111824Z 02026KT 08/01 A3028 RMK A01 T00790012  RH  062%=      5-min Rain = 0
KDC1 111825Z 02024G29KT 08/01 A3028 RMK A01 T00790011  RH  062%=      5-min Rain = 0
KDC1 111826Z 02024G30KT 08/01 A3028 RMK A01 T00790011  RH  062%=      5-min Rain = 0
KDC1 111827Z 02022KT 08/01 A3028 RMK A01 T00790011  RH  062%=      5-min Rain = 0
KDC1 111828Z 02021G27KT 08/01 A3029 RMK A01 T00790011  RH  062%=      5-min Rain = 0
KDC1 111829Z 02021G27KT 08/01 A3029 RMK A01 T00790011  RH  062%=      5-min Rain = 0
KDC1 111830Z 02023G28KT 08/01 A3029 RMK A01 T00790012  RH  062%=      5-min Rain = 0
KDC1 111831Z 02020KT 08/01 A3029 RMK A01 T00800011  RH  062%=      5-min Rain = 0
KDC1 111832Z 02022KT 08/01 A3029 RMK A01 T00790011  RH  062%=      5-min Rain = 0
KDC1 111833Z 02023G28KT 08/01 A3029 RMK A01 T00790011  RH  062%=      5-min Rain = 0
KDC1 111834Z 02021G28KT 08/01 A3029 RMK A01 T00780010  RH  062%=      5-min Rain = 0
KDC1 111835Z 03022G27KT 08/01 A3029 RMK A01 T00780010  RH  062%=      5-min Rain = 0
KDC1 111836Z 02022G29KT 08/01 A3029 RMK A01 T00780010  RH  062%=      5-min Rain = 0
KDC1 111837Z 03024KT 08/01 A3029 RMK A01 T00780010  RH  062%=      5-min Rain = 0
KDC1 111838Z 03023KT 08/01 A3029 RMK A01 T00780010  RH  062%=      5-min Rain = 0
KDC1 111839Z 03017G23KT 08/01 A3029 RMK A01 T00780011  RH  063%=      5-min Rain = 0
KDC1 111840Z 03022G28KT 08/01 A303 RMK A01 T00780011  RH  063%=      5-min Rain = 0
KDC1 111841Z 03018KT 08/01 A303 RMK A01 T00780010  RH  062%=      5-min Rain = 0
KDC1 111842Z 02015G21KT 08/01 A303 RMK A01 T00790011  RH  063%=      5-min Rain = 0
KDC1 111843Z 03023KT 08/01 A303 RMK A01 T00790012  RH  062%=      5-min Rain = 0
KDC1 111844Z 03022G27KT 08/01 A303 RMK A01 T00780010  RH  062%=      5-min Rain = 0
KDC1 111845Z 02020G26KT 08/01 A303 RMK A01 T00780011  RH  062%=      5-min Rain = 0
KDC1 111846Z 02019G24KT 08/01 A303 RMK A01 T00780011  RH  062%=      5-min Rain = 0
KDC1 111847Z 02019KT 08/01 A303 RMK A01 T00770010  RH  063%=      5-min Rain = 0
KDC1 111848Z 03021KT 08/01 A303 RMK A01 T00770010  RH  062%=      5-min Rain = 0
KDC1 111849Z 02021KT 08/01 A303 RMK A01 T00780010  RH  062%=      5-min Rain = 0
KDC1 111850Z 02020KT 08/01 A303 RMK A01 T00770010  RH  062%=      5-min Rain = 0
KDC1 111851Z 03017KT 08/01 A303 RMK A01 T00770011  RH  063%=      5-min Rain = 0
KDC1 111852Z 03019G25KT 08/01 A303 RMK A01 T00780011  RH  063%=      5-min Rain = 0
KDC1 111853Z 02021G28KT 08/01 A303 RMK A01 T00780010  RH  062%=      5-min Rain = 0
KDC1 111854Z 02020G26KT 08/01 A303 RMK A01 T00770010  RH  062%=      5-min Rain = 0
KDC1 111855Z 02019KT 08/01 A303 RMK A01 T00760010  RH  063%=      5-min Rain = 0
KDC1 111856Z 02020KT 08/01 A303 RMK A01 T00760010  RH  063%=      5-min Rain = 0
KDC1 111857Z 02019KT 08/01 A303 RMK A01 T00760011  RH  063%=      5-min Rain = 0
KDC1 111858Z 02018KT 08/01 A303 RMK A01 T00760010  RH  063%=      5-min Rain = 0
KDC1 111859Z 02018G23KT 08/01 A303 RMK A01 T00760010  RH  063%=      5-min Rain = 0
KDC1 111900Z 02023KT 08/01 A303 RMK A01 T00760010  RH  063%=      5-min Rain = 0
KDC1 111901Z 02021G26KT 08/01 A303 RMK A01 T00750009  RH  063%=      5-min Rain = 0
KDC1 111902Z 02019G27KT 08/01 A303 RMK A01 T00750009  RH  063%=      5-min Rain = 0
KDC1 111903Z 02019G26KT 07/01 A303 RMK A01 T00740009  RH  063%=      5-min Rain = 0
KDC1 111904Z 03022G27KT 08/01 A303 RMK A01 T00750009  RH  063%=      5-min Rain = 0
KDC1 111905Z 02021G26KT 07/01 A303 RMK A01 T00740008  RH  063%=      5-min Rain = 0
KDC1 111906Z 02021KT 07/01 A303 RMK A01 T00730008  RH  063%=      5-min Rain = 0
KDC1 111907Z 02019G25KT 07/01 A303 RMK A01 T00730008  RH  064%=      5-min Rain = 0
KDC1 111908Z 02019KT 07/01 A303 RMK A01 T00720008  RH  064%=      5-min Rain = 0
KDC1 111909Z 02019KT 07/01 A303 RMK A01 T00720008  RH  064%=      5-min Rain = 0
KDC1 111910Z 02021KT 07/01 A303 RMK A01 T00720008  RH  064%=      5-min Rain = 0
KDC1 111911Z 02018G24KT 07/01 A303 RMK A01 T00710008  RH  064%=      5-min Rain = 0
KDC1 111912Z 02017KT 07/01 A303 RMK A01 T00710009  RH  064%=      5-min Rain = 0
KDC1 111913Z 02018G25KT 07/01 A303 RMK A01 T00720010  RH  065%=      5-min Rain = 0
KDC1 111914Z 03018G24KT 07/01 A303 RMK A01 T00710010  RH  065%=      5-min Rain = 0
KDC1 111915Z 03021G27KT 07/01 A3031 RMK A01 T00710009  RH  065%=      5-min Rain = 0
KDC1 111916Z 02019KT 07/01 A3031 RMK A01 T00700008  RH  065%=      5-min Rain = 0
KDC1 111917Z 02019G24KT 07/01 A3031 RMK A01 T00700009  RH  065%=      5-min Rain = 0
KDC1 111918Z 02019KT 07/01 A3031 RMK A01 T00700009  RH  065%=      5-min Rain = 0
KDC1 111919Z 02021KT 07/01 A3031 RMK A01 T00690009  RH  065%=      5-min Rain = 0
KDC1 111920Z 02017KT 07/01 A3031 RMK A01 T00690008  RH  065%=      5-min Rain = 0
KDC1 111921Z 02018G23KT 07/01 A3031 RMK A01 T00690008  RH  065%=      5-min Rain = 0
KDC1 111922Z 03021G26KT 07/01 A3031 RMK A01 T00690008  RH  065%=      5-min Rain = 0
KDC1 111923Z 02018KT 07/01 A3031 RMK A01 T00680007  RH  065%=      5-min Rain = 0
KDC1 111924Z 02018KT 07/01 A3031 RMK A01 T00680007  RH  065%=      5-min Rain = 0
KDC1 111925Z 02022KT 07/01 A3031 RMK A01 T00670007  RH  065%=      5-min Rain = 0
KDC1 111926Z 03017G22KT 07/01 A3032 RMK A01 T00670007  RH  065%=      5-min Rain = 0
KDC1 111927Z 03015KT 07/01 A3032 RMK A01 T00660007  RH  066%=      5-min Rain = 0
KDC1 111928Z 02019KT 07/01 A3032 RMK A01 T00670007  RH  066%=      5-min Rain = 0
KDC1 111929Z 03018KT 07/01 A3032 RMK A01 T00660006  RH  065%=      5-min Rain = 0
KDC1 111930Z 02017KT 07/01 A3032 RMK A01 T00660006  RH  065%=      5-min Rain = 0
KDC1 111931Z 02017G23KT 07/01 A3032 RMK A01 T00660006  RH  065%=      5-min Rain = 0
KDC1 111932Z 02019G24KT 07/01 A3032 RMK A01 T00660006  RH  065%=      5-min Rain = 0
KDC1 111933Z 03017G23KT 07/01 A3032 RMK A01 T00660005  RH  065%=      5-min Rain = 0
KDC1 111934Z 02020KT 07/01 A3032 RMK A01 T00660005  RH  065%=      5-min Rain = 0
KDC1 111935Z 02018G23KT 07/01 A3032 RMK A01 T00650005  RH  065%=      5-min Rain = 0
KDC1 111936Z 02020KT 07/01 A3032 RMK A01 T00660005  RH  065%=      5-min Rain = 0
KDC1 111937Z 02016G22KT 07/01 A3032 RMK A01 T00650005  RH  065%=      5-min Rain = 0
KDC1 111938Z 02019KT 07/01 A3032 RMK A01 T00650005  RH  065%=      5-min Rain = 0
KDC1 111939Z 03019KT 07/01 A3032 RMK A01 T00650005  RH  066%=      5-min Rain = 0
KDC1 111940Z 02015KT 06/01 A3032 RMK A01 T00640006  RH  066%=      5-min Rain = 0
KDC1 111941Z 02019G25KT 06/01 A3032 RMK A01 T00640008  RH  067%=      5-min Rain = 0
KDC1 111942Z 02019KT 06/01 A3032 RMK A01 T00630007  RH  067%=      5-min Rain = 0
KDC1 111943Z 02018G23KT 06/01 A3032 RMK A01 T00620007  RH  068%=      5-min Rain = 0
KDC1 111944Z 02019G24KT 06/01 A3032 RMK A01 T00620008  RH  068%=      5-min Rain = 0
KDC1 111945Z 01019KT 06/01 A3032 RMK A01 T00610008  RH  069%=      5-min Rain = 0
KDC1 111946Z 01016G22KT 06/01 A3032 RMK A01 T00610009  RH  069%=      5-min Rain = 0
KDC1 111947Z 02016KT 06/01 A3032 RMK A01 T00610010  RH  070%=      5-min Rain = 0
KDC1 111948Z 01016G21KT 06/01 A3032 RMK A01 T00610011  RH  070%=      5-min Rain = 0
KDC1 111949Z 02017KT 06/01 A3032 RMK A01 T00600010  RH  070%=      5-min Rain = 0
KDC1 111950Z 02018G23KT 06/01 A3032 RMK A01 T00600010  RH  070%=      5-min Rain = 0
KDC1 111951Z 02016KT 06/01 A3032 RMK A01 T00600009  RH  070%=      5-min Rain = 0
KDC1 111952Z 02015KT 06/01 A3032 RMK A01 T00600010  RH  070%=      5-min Rain = 0
KDC1 111953Z 02016G21KT 06/01 A3032 RMK A01 T00600010  RH  070%=      5-min Rain = 0
KDC1 111954Z 02017KT 06/01 A3032 RMK A01 T00600010  RH  070%=      5-min Rain = 0
KDC1 111955Z 02015G20KT 06/01 A3032 RMK A01 T00610010  RH  070%=      5-min Rain = 0
KDC1 111956Z 02014G19KT 06/01 A3032 RMK A01 T00610010  RH  070%=      5-min Rain = 0
KDC1 111957Z 02019KT 06/01 A3032 RMK A01 T00610009  RH  069%=      5-min Rain = 0
KDC1 111958Z 02019G24KT 06/01 A3032 RMK A01 T00610008  RH  069%=      5-min Rain = 0
KDC1 111959Z 02020KT 06/01 A3032 RMK A01 T00600008  RH  069%=      5-min Rain = 0
KDC1 112000Z 02017KT 06/01 A3032 RMK A01 T00610010  RH  070%=      5-min Rain = 0
KDC1 112001Z 02019G24KT 06/01 A3032 RMK A01 T00600010  RH  070%=      5-min Rain = 0
KDC1 112002Z 02017KT 06/01 A3032 RMK A01 T00610010  RH  070%=      5-min Rain = 0
KDC1 112003Z 02017KT 06/01 A3032 RMK A01 T00600010  RH  070%=      5-min Rain = 0
KDC1 112004Z 03017G22KT 06/01 A3032 RMK A01 T00600009  RH  070%=      5-min Rain = 0
KDC1 112005Z 02015G20KT 06/01 A3032 RMK A01 T00600010  RH  071%=      5-min Rain = 0
KDC1 112006Z 03015G23KT 06/01 A3032 RMK A01 T00600011  RH  071%=      5-min Rain = 0
KDC1 112007Z 02019KT 06/01 A3033 RMK A01 T00590010  RH  070%=      5-min Rain = 0
KDC1 112008Z 03016G22KT 06/01 A3033 RMK A01 T00590009  RH  070%=      5-min Rain = 0
KDC1 112009Z 02012KT 06/01 A3032 RMK A01 T00600011  RH  071%=      5-min Rain = 0
KDC1 112010Z 03017KT 06/01 A3033 RMK A01 T00610011  RH  071%=      5-min Rain = 0
KDC1 112011Z 02016KT 06/01 A3033 RMK A01 T00610010  RH  070%=      5-min Rain = 0
KDC1 112012Z 03015G20KT 06/01 A3033 RMK A01 T00600009  RH  070%=      5-min Rain = 0
KDC1 112013Z 02015KT 06/01 A3033 RMK A01 T00600010  RH  070%=      5-min Rain = 0
KDC1 112014Z 02014G21KT 06/01 A3033 RMK A01 T00600010  RH  070%=      5-min Rain = 0
KDC1 112015Z 02017KT 06/01 A3033 RMK A01 T00600007  RH  069%=      5-min Rain = 0
KDC1 112016Z 03015KT 06/01 A3033 RMK A01 T00600006  RH  069%=      5-min Rain = 0
KDC1 112017Z 02018KT 06/01 A3033 RMK A01 T00600007  RH  069%=      5-min Rain = 0
KDC1 112018Z 03017G22KT 06/01 A3033 RMK A01 T00600007  RH  069%=      5-min Rain = 0
KDC1 112019Z 03017KT 06/01 A3033 RMK A01 T00600006  RH  068%=      5-min Rain = 0
KDC1 112020Z 03016G21KT 06/01 A3033 RMK A01 T00600005  RH  067%=      5-min Rain = 0
KDC1 112021Z 03016G23KT 06/01 A3033 RMK A01 T00600005  RH  068%=      5-min Rain = 0
KDC1 112022Z 03018KT 06/00 A3033 RMK A01 T00600003  RH  067%=      5-min Rain = 0
KDC1 112023Z 04018G23KT 06/00 A3033 RMK A01 T00600003  RH  066%=      5-min Rain = 0
KDC1 112024Z 03013KT 06/00 A3033 RMK A01 T00600003  RH  067%=      5-min Rain = 0
KDC1 112025Z 03018G23KT 06/00 A3033 RMK A01 T00610003  RH  067%=      5-min Rain = 0
KDC1 112026Z 03016G23KT 06/00 A3033 RMK A01 T00600002  RH  066%=      5-min Rain = 0
KDC1 112027Z 03015KT 06/00 A3033 RMK A01 T00600003  RH  067%=      5-min Rain = 0
KDC1 112028Z 02017KT 06/00 A3033 RMK A01 T00600003  RH  067%=      5-min Rain = 0
KDC1 112029Z 03021G26KT 06/00 A3033 RMK A01 T00600002  RH  066%=      5-min Rain = 0
KDC1 112030Z 04018G23KT 06/M00 A3033 RMK A01 T00581001  RH  066%=      5-min Rain = 0
KDC1 112031Z 02018G23KT 06/00 A3033 RMK A01 T005800-0  RH  066%=      5-min Rain = 0
KDC1 112032Z 02016KT 06/00 A3033 RMK A01 T005800-0  RH  066%=      5-min Rain = 0
KDC1 112033Z 02017KT 06/00 A3033 RMK A01 T005800-0  RH  066%=      5-min Rain = 0
KDC1 112034Z 03015G22KT 06/00 A3033 RMK A01 T00570000  RH  067%=      5-min Rain = 0
KDC1 112035Z 03017G23KT 06/00 A3033 RMK A01 T00570000  RH  067%=      5-min Rain = 0
KDC1 112036Z 02019G24KT 06/M00 A3033 RMK A01 T00571001  RH  066%=      5-min Rain = 0
KDC1 112037Z 03018KT 06/M00 A3033 RMK A01 T00571002  RH  066%=      5-min Rain = 0
KDC1 112038Z 02018KT 06/M00 A3033 RMK A01 T00571002  RH  066%=      5-min Rain = 0
KDC1 112039Z 03018G25KT 06/M00 A3033 RMK A01 T00571002  RH  066%=      5-min Rain = 0
KDC1 112040Z 03018G23KT 06/M00 A3034 RMK A01 T00571003  RH  065%=      5-min Rain = 0
KDC1 112041Z 02015KT 06/M00 A3034 RMK A01 T00571002  RH  066%=      5-min Rain = 0
KDC1 112042Z 02018G23KT 06/M00 A3034 RMK A01 T00571002  RH  066%=      5-min Rain = 0
KDC1 112043Z 03017G23KT 06/M00 A3034 RMK A01 T00561003  RH  066%=      5-min Rain = 0
KDC1 112044Z 02016KT 06/M00 A3034 RMK A01 T00561002  RH  066%=      5-min Rain = 0
KDC1 112045Z 02017G25KT 06/M00 A3034 RMK A01 T00561004  RH  066%=      5-min Rain = 0
KDC1 112046Z 03019G24KT 06/M01 A3034 RMK A01 T00551005  RH  065%=      5-min Rain = 0
KDC1 112047Z 02017G22KT 05/M00 A3034 RMK A01 T00541003  RH  066%=      5-min Rain = 0
KDC1 112048Z 02018KT 05/M00 A3034 RMK A01 T00541002  RH  067%=      5-min Rain = 0
KDC1 112049Z 03018KT 05/M00 A3034 RMK A01 T00531002  RH  068%=      5-min Rain = 0
KDC1 112050Z 03017KT 05/M00 A3034 RMK A01 T00521002  RH  068%=      5-min Rain = 0
KDC1 112051Z 03018KT 05/M00 A3034 RMK A01 T00521001  RH  068%=      5-min Rain = 0
KDC1 112052Z 03018KT 05/00 A3034 RMK A01 T005200-0  RH  069%=      5-min Rain = 0
KDC1 112053Z 02015KT 05/00 A3034 RMK A01 T005200-0  RH  069%=      5-min Rain = 0
KDC1 112054Z 02015KT 05/M00 A3034 RMK A01 T00521001  RH  069%=      5-min Rain = 0
KDC1 112055Z 02018KT 05/00 A3034 RMK A01 T005300-0  RH  069%=      5-min Rain = 0
KDC1 112056Z 02020KT 05/00 A3034 RMK A01 T005200-0  RH  069%=      5-min Rain = 0
KDC1 112057Z 02016KT 05/00 A3034 RMK A01 T005100-0  RH  070%=      5-min Rain = 0
KDC1 112058Z 02016G21KT 05/00 A3034 RMK A01 T00500001  RH  070%=      5-min Rain = 0
KDC1 112059Z 03015G20KT 05/00 A3034 RMK A01 T00500001  RH  070%=      5-min Rain = 0
KDC1 112100Z 02016KT 05/00 A3034 RMK A01 T00510001  RH  070%=      5-min Rain = 0
KDC1 112101Z 03015G21KT 05/00 A3034 RMK A01 T00510000  RH  070%=      5-min Rain = 0
KDC1 112102Z 02015G20KT 05/00 A3034 RMK A01 T00510001  RH  070%=      5-min Rain = 0
KDC1 112103Z 02017G22KT 05/00 A3034 RMK A01 T00510001  RH  070%=      5-min Rain = 0
KDC1 112104Z 03014G19KT 05/00 A3034 RMK A01 T00510001  RH  070%=      5-min Rain = 0
KDC1 112105Z 02016G21KT 05/00 A3034 RMK A01 T00510001  RH  070%=      5-min Rain = 0
KDC1 112106Z 02018KT 05/00 A3034 RMK A01 T005100-0  RH  070%=      5-min Rain = 0
KDC1 112107Z 02018G24KT 05/M00 A3034 RMK A01 T00501001  RH  070%=      5-min Rain = 0
KDC1 112108Z 03017KT 05/M00 A3034 RMK A01 T00501001  RH  070%=      5-min Rain = 0
KDC1 112109Z 03019KT 05/M00 A3034 RMK A01 T00491002  RH  069%=      5-min Rain = 0
KDC1 112110Z 03017G23KT 05/M00 A3034 RMK A01 T00491002  RH  069%=      5-min Rain = 0
KDC1 112111Z 03019G26KT 05/M00 A3034 RMK A01 T00491003  RH  069%=      5-min Rain = 0
KDC1 112112Z 03016G21KT 05/M00 A3034 RMK A01 T00501003  RH  069%=      5-min Rain = 0
KDC1 112113Z 03017G23KT 05/M00 A3034 RMK A01 T00501003  RH  069%=      5-min Rain = 0
KDC1 112114Z 03019G26KT 05/M00 A3034 RMK A01 T00501003  RH  068%=      5-min Rain = 0
KDC1 112115Z 02016KT 05/M00 A3034 RMK A01 T00501003  RH  069%=      5-min Rain = 0
KDC1 112116Z 03018KT 05/M00 A3035 RMK A01 T00491003  RH  069%=      5-min Rain = 0
KDC1 112117Z 03016KT 05/M00 A3034 RMK A01 T00501003  RH  069%=      5-min Rain = 0
KDC1 112118Z 03015KT 05/M00 A3034 RMK A01 T00491003  RH  069%=      5-min Rain = 0
KDC1 112119Z 03016KT 05/M00 A3035 RMK A01 T00501002  RH  069%=      5-min Rain = 0
KDC1 112120Z 03015KT 05/M00 A3034 RMK A01 T00501003  RH  069%=      5-min Rain = 0
KDC1 112121Z 03017G23KT 05/M00 A3034 RMK A01 T00501003  RH  068%=      5-min Rain = 0
KDC1 112122Z 03019G24KT 05/M00 A3035 RMK A01 T00501004  RH  068%=      5-min Rain = 0
KDC1 112123Z 03020KT 05/M00 A3035 RMK A01 T00501004  RH  068%=      5-min Rain = 0
KDC1 112124Z 04021KT 05/M00 A3034 RMK A01 T00501004  RH  068%=      5-min Rain = 0
KDC1 112125Z 04021KT 05/M01 A3035 RMK A01 T00491006  RH  068%=      5-min Rain = 0
KDC1 112126Z 03020G27KT 05/M01 A3034 RMK A01 T00491006  RH  068%=      5-min Rain = 0
KDC1 112127Z 03020G25KT 05/M01 A3034 RMK A01 T00491006  RH  068%=      5-min Rain = 0
KDC1 112128Z 03018G23KT 05/M01 A3034 RMK A01 T00491005  RH  068%=      5-min Rain = 0
KDC1 112129Z 03016G22KT 05/M01 A3034 RMK A01 T00491005  RH  068%=      5-min Rain = 0
KDC1 112130Z 03019KT 05/M01 A3034 RMK A01 T00491005  RH  068%=      5-min Rain = 0
KDC1 112131Z 04019KT 05/M01 A3035 RMK A01 T00501006  RH  067%=      5-min Rain = 0
KDC1 112132Z 03020G26KT 05/M01 A3035 RMK A01 T00501005  RH  068%=      5-min Rain = 0
KDC1 112133Z 03016KT 05/M01 A3035 RMK A01 T00491006  RH  067%=      5-min Rain = 0
KDC1 112134Z 03018KT 05/M01 A3035 RMK A01 T00491007  RH  067%=      5-min Rain = 0
KDC1 112135Z 03019G25KT 05/M01 A3035 RMK A01 T00501007  RH  067%=      5-min Rain = 0
KDC1 112136Z 03019G24KT 05/M01 A3035 RMK A01 T00491008  RH  066%=      5-min Rain = 0
KDC1 112137Z 03018KT 05/M01 A3035 RMK A01 T00491008  RH  066%=      5-min Rain = 0
KDC1 112138Z 04021KT 05/M01 A3035 RMK A01 T00491008  RH  066%=      5-min Rain = 0
KDC1 112139Z 04020KT 05/M01 A3035 RMK A01 T00501009  RH  066%=      5-min Rain = 0
KDC1 112140Z 03021KT 05/M01 A3035 RMK A01 T00491009  RH  066%=      5-min Rain = 0
KDC1 112141Z 04018G23KT 05/M01 A3035 RMK A01 T00491009  RH  066%=      5-min Rain = 0
KDC1 112142Z 03020G25KT 05/M01 A3035 RMK A01 T00491009  RH  066%=      5-min Rain = 0
KDC1 112143Z 04020KT 05/M01 A3035 RMK A01 T00491009  RH  066%=      5-min Rain = 0
KDC1 112144Z 04020G25KT 05/M01 A3035 RMK A01 T00501009  RH  066%=      5-min Rain = 0
KDC1 112145Z 04019G25KT 05/M01 A3035 RMK A01 T00501010  RH  065%=      5-min Rain = 0
KDC1 112146Z 04019KT 05/M01 A3035 RMK A01 T00501010  RH  065%=      5-min Rain = 0
KDC1 112147Z 03021G26KT 05/M01 A3035 RMK A01 T00501010  RH  065%=      5-min Rain = 0
KDC1 112148Z 03021KT 05/M01 A3036 RMK A01 T00501010  RH  065%=      5-min Rain = 0
KDC1 112149Z 03017G22KT 05/M01 A3035 RMK A01 T00501010  RH  065%=      5-min Rain = 0
KDC1 112150Z 03019KT 05/M01 A3035 RMK A01 T00501010  RH  065%=      5-min Rain = 0
KDC1 112151Z 04016KT 05/M01 A3035 RMK A01 T00491011  RH  065%=      5-min Rain = 0
KDC1 112152Z 04018G25KT 05/M01 A3035 RMK A01 T00501011  RH  065%=      5-min Rain = 0
KDC1 112153Z 04019G25KT 05/M01 A3035 RMK A01 T00491012  RH  065%=      5-min Rain = 0
KDC1 112154Z 04017KT 05/M01 A3035 RMK A01 T00501012  RH  065%=      5-min Rain = 0
KDC1 112155Z 03020KT 05/M01 A3035 RMK A01 T00501012  RH  064%=      5-min Rain = 0
KDC1 112156Z 04019KT 05/M01 A3035 RMK A01 T00501013  RH  064%=      5-min Rain = 0
KDC1 112157Z 04021KT 05/M01 A3036 RMK A01 T00501012  RH  064%=      5-min Rain = 0
KDC1 112158Z 04019G24KT 05/M01 A3036 RMK A01 T00501013  RH  064%=      5-min Rain = 0
KDC1 112159Z 03016KT 05/M01 A3036 RMK A01 T00501013  RH  064%=      5-min Rain = 0
KDC1 112200Z 03020KT 05/M01 A3036 RMK A01 T00501013  RH  063%=      5-min Rain = 0
KDC1 112201Z 04019KT 05/M01 A3036 RMK A01 T00501014  RH  063%=      5-min Rain = 0
KDC1 112202Z 03014KT 05/M01 A3036 RMK A01 T00511013  RH  064%=      5-min Rain = 0
KDC1 112203Z 03014KT 05/M01 A3036 RMK A01 T00511013  RH  064%=      5-min Rain = 0
KDC1 112204Z 03018KT 05/M01 A3036 RMK A01 T00511013  RH  063%=      5-min Rain = 0
KDC1 112205Z 04017G24KT 05/M01 A3036 RMK A01 T00511013  RH  063%=      5-min Rain = 0
KDC1 112206Z 04017G24KT 05/M01 A3036 RMK A01 T00511013  RH  063%=      5-min Rain = 0
KDC1 112207Z 04015KT 05/M01 A3036 RMK A01 T00511014  RH  063%=      5-min Rain = 0
KDC1 112208Z 04017G22KT 05/M01 A3036 RMK A01 T00511014  RH  063%=      5-min Rain = 0
KDC1 112209Z 04017KT 05/M02 A3036 RMK A01 T00511015  RH  062%=      5-min Rain = 0
KDC1 112210Z 04017KT 05/M02 A3036 RMK A01 T00511015  RH  063%=      5-min Rain = 0
KDC1 112211Z 04019KT 05/M01 A3036 RMK A01 T00511014  RH  063%=      5-min Rain = 0
KDC1 112212Z 03019KT 05/M01 A3036 RMK A01 T00511013  RH  063%=      5-min Rain = 0
KDC1 112213Z 04020KT 05/M01 A3036 RMK A01 T00501013  RH  064%=      5-min Rain = 0
KDC1 112214Z 04019KT 05/M01 A3036 RMK A01 T00501013  RH  064%=      5-min Rain = 0
KDC1 112215Z 04016KT 05/M01 A3036 RMK A01 T00491012  RH  065%=      5-min Rain = 0
KDC1 112216Z 05017KT 05/M01 A3036 RMK A01 T00491011  RH  065%=      5-min Rain = 0
KDC1 112217Z 04014G19KT 05/M01 A3036 RMK A01 T00491011  RH  065%=      5-min Rain = 0
KDC1 112218Z 04019KT 05/M01 A3036 RMK A01 T00501011  RH  065%=      5-min Rain = 0
KDC1 112219Z 04018KT 05/M01 A3036 RMK A01 T00491012  RH  064%=      5-min Rain = 0
KDC1 112220Z 05017G22KT 05/M01 A3036 RMK A01 T00491013  RH  064%=      5-min Rain = 0
KDC1 112221Z 04015KT 05/M01 A3036 RMK A01 T00491012  RH  064%=      5-min Rain = 0
KDC1 112222Z 04018KT 05/M01 A3037 RMK A01 T00491012  RH  064%=      5-min Rain = 0
KDC1 112223Z 04020KT 05/M01 A3037 RMK A01 T00491013  RH  064%=      5-min Rain = 0
KDC1 112224Z 04019KT 05/M01 A3037 RMK A01 T00491014  RH  064%=      5-min Rain = 0
KDC1 112225Z 04016G22KT 05/M01 A3037 RMK A01 T00491014  RH  063%=      5-min Rain = 0
KDC1 112226Z 05016KT 05/M01 A3037 RMK A01 T00491014  RH  063%=      5-min Rain = 0
KDC1 112227Z 05016G21KT 05/M01 A3037 RMK A01 T00491014  RH  064%=      5-min Rain = 0
KDC1 112228Z 04014G19KT 05/M01 A3037 RMK A01 T00491014  RH  064%=      5-min Rain = 0
KDC1 112229Z 04015KT 05/M01 A3037 RMK A01 T00491014  RH  064%=      5-min Rain = 0
KDC1 112230Z 04016G23KT 05/M01 A3037 RMK A01 T00491014  RH  064%=      5-min Rain = 0
KDC1 112231Z 04018KT 05/M02 A3037 RMK A01 T00491015  RH  063%=      5-min Rain = 0
KDC1 112232Z 04015KT 05/M02 A3037 RMK A01 T00491015  RH  063%=      5-min Rain = 0
KDC1 112233Z 03017KT 05/M02 A3037 RMK A01 T00491015  RH  063%=      5-min Rain = 0
KDC1 112234Z 04018KT 05/M02 A3037 RMK A01 T00491016  RH  063%=      5-min Rain = 0
KDC1 112235Z 05016KT 05/M02 A3037 RMK A01 T00481016  RH  063%=      5-min Rain = 0
KDC1 112236Z 04016KT 05/M02 A3037 RMK A01 T00481016  RH  063%=      5-min Rain = 0
KDC1 112237Z 05016G22KT 05/M02 A3037 RMK A01 T00481017  RH  063%=      5-min Rain = 0
KDC1 112238Z 04016KT 05/M02 A3037 RMK A01 T00481017  RH  063%=      5-min Rain = 0
KDC1 112239Z 04016G22KT 05/M02 A3037 RMK A01 T00481017  RH  063%=      5-min Rain = 0
KDC1 112240Z 04017KT 05/M02 A3037 RMK A01 T00481017  RH  063%=      5-min Rain = 0
KDC1 112241Z 04015KT 05/M02 A3037 RMK A01 T00481017  RH  063%=      5-min Rain = 0
KDC1 112242Z 04018KT 05/M02 A3037 RMK A01 T00481017  RH  063%=      5-min Rain = 0
KDC1 112243Z 04017KT 05/M02 A3037 RMK A01 T00481017  RH  063%=      5-min Rain = 0
KDC1 112244Z 04015KT 05/M02 A3037 RMK A01 T00481017  RH  063%=      5-min Rain = 0
KDC1 112245Z 04016G21KT 05/M02 A3038 RMK A01 T00481017  RH  063%=      5-min Rain = 0
KDC1 112246Z 04016KT 05/M02 A3038 RMK A01 T00481017  RH  063%=      5-min Rain = 0
KDC1 112247Z 04018KT 05/M02 A3038 RMK A01 T00481018  RH  062%=      5-min Rain = 0
KDC1 112248Z 04015G20KT 05/M02 A3038 RMK A01 T00481018  RH  062%=      5-min Rain = 0
KDC1 112249Z 04017KT 05/M02 A3038 RMK A01 T00481018  RH  062%=      5-min Rain = 0
KDC1 112250Z 05014KT 05/M02 A3038 RMK A01 T00481018  RH  062%=      5-min Rain = 0
KDC1 112251Z 05015G21KT 05/M02 A3038 RMK A01 T00481017  RH  062%=      5-min Rain = 0
KDC1 112252Z 04014G20KT 05/M02 A3038 RMK A01 T00481018  RH  062%=      5-min Rain = 0
KDC1 112253Z 04015KT 05/M02 A3038 RMK A01 T00481018  RH  062%=      5-min Rain = 0
KDC1 112254Z 04014G20KT 05/M02 A3038 RMK A01 T00491017  RH  062%=      5-min Rain = 0
KDC1 112255Z 04017G22KT 05/M02 A3038 RMK A01 T00491018  RH  062%=      5-min Rain = 0
KDC1 112256Z 04017G23KT 05/M02 A3038 RMK A01 T00491018  RH  062%=      5-min Rain = 0
KDC1 112257Z 04016G21KT 05/M02 A3038 RMK A01 T00481019  RH  062%=      5-min Rain = 0
KDC1 112258Z 04019KT 05/M02 A3038 RMK A01 T00481019  RH  062%=      5-min Rain = 0
KDC1 112259Z 05019KT 05/M02 A3038 RMK A01 T00481020  RH  062%=      5-min Rain = 0
KDC1 112300Z 05019KT 05/M02 A3038 RMK A01 T00471020  RH  062%=      5-min Rain = 0
KDC1 112301Z 04015KT 05/M02 A3038 RMK A01 T00471020  RH  062%=      5-min Rain = 0
KDC1 112302Z 04017KT 05/M02 A3038 RMK A01 T00471020  RH  062%=      5-min Rain = 0
KDC1 112303Z 05016KT 05/M02 A3038 RMK A01 T00471020  RH  062%=      5-min Rain = 0
KDC1 112304Z 04016KT 05/M02 A3038 RMK A01 T00471020  RH  062%=      5-min Rain = 0
KDC1 112305Z 05016KT 05/M02 A3038 RMK A01 T00471020  RH  062%=      5-min Rain = 0
KDC1 112306Z 04016KT 05/M02 A3038 RMK A01 T00481020  RH  062%=      5-min Rain = 0
KDC1 112307Z 04015KT 05/M02 A3038 RMK A01 T00481020  RH  061%=      5-min Rain = 0
KDC1 112308Z 05014KT 05/M02 A3038 RMK A01 T00481020  RH  061%=      5-min Rain = 0
KDC1 112309Z 05015KT 05/M02 A3038 RMK A01 T00481020  RH  061%=      5-min Rain = 0
KDC1 112310Z 05015KT 05/M02 A3038 RMK A01 T00481020  RH  061%=      5-min Rain = 0
KDC1 112311Z 04016KT 05/M02 A3038 RMK A01 T00481020  RH  061%=      5-min Rain = 0
KDC1 112312Z 04013KT 05/M02 A3038 RMK A01 T00481020  RH  061%=      5-min Rain = 0
KDC1 112313Z 04014KT 05/M02 A3038 RMK A01 T00481021  RH  061%=      5-min Rain = 0
KDC1 112314Z 04016G21KT 05/M02 A3039 RMK A01 T00471021  RH  061%=      5-min Rain = 0
KDC1 112315Z 04015KT 05/M02 A3039 RMK A01 T00471022  RH  061%=      5-min Rain = 0
KDC1 112316Z 04014KT 05/M02 A3039 RMK A01 T00471021  RH  061%=      5-min Rain = 0
KDC1 112317Z 04013G20KT 05/M02 A3039 RMK A01 T00471021  RH  061%=      5-min Rain = 0
KDC1 112318Z 04014KT 05/M02 A3039 RMK A01 T00471021  RH  061%=      5-min Rain = 0
KDC1 112319Z 04012G17KT 05/M02 A3039 RMK A01 T00471022  RH  061%=      5-min Rain = 0
KDC1 112320Z 03015G20KT 05/M02 A3039 RMK A01 T00471022  RH  061%=      5-min Rain = 0
KDC1 112321Z 03012KT 05/M02 A3039 RMK A01 T00471022  RH  061%=      5-min Rain = 0
KDC1 112322Z 03012KT 05/M02 A3039 RMK A01 T00471021  RH  061%=      5-min Rain = 0
KDC1 112323Z 03013KT 05/M02 A3039 RMK A01 T00471021  RH  061%=      5-min Rain = 0
KDC1 112324Z 03015KT 05/M02 A3039 RMK A01 T00471022  RH  061%=      5-min Rain = 0
KDC1 112325Z 03015KT 05/M02 A3039 RMK A01 T00471022  RH  061%=      5-min Rain = 0
KDC1 112326Z 03014KT 05/M02 A3038 RMK A01 T00461023  RH  061%=      5-min Rain = 0
KDC1 112327Z 03014KT 05/M02 A3039 RMK A01 T00461023  RH  061%=      5-min Rain = 0
KDC1 112328Z 03014KT 05/M02 A3038 RMK A01 T00461023  RH  061%=      5-min Rain = 0
KDC1 112329Z 03015KT 05/M02 A3039 RMK A01 T00461023  RH  061%=      5-min Rain = 0
KDC1 112330Z 03015KT 05/M02 A3039 RMK A01 T00461023  RH  061%=      5-min Rain = 0
KDC1 112331Z 03014KT 05/M02 A3039 RMK A01 T00461023  RH  061%=      5-min Rain = 0
KDC1 112332Z 03015KT 05/M02 A3039 RMK A01 T00451023  RH  061%=      5-min Rain = 0
KDC1 112333Z 02015G20KT 05/M02 A3038 RMK A01 T00451023  RH  061%=      5-min Rain = 0
KDC1 112334Z 03014KT 05/M02 A3038 RMK A01 T00451024  RH  061%=      5-min Rain = 0
KDC1 112335Z 03015G21KT 05/M02 A3038 RMK A01 T00451023  RH  061%=      5-min Rain = 0
KDC1 112336Z 03018G24KT 05/M02 A3039 RMK A01 T00451024  RH  061%=      5-min Rain = 0
KDC1 112337Z 03015G20KT 04/M03 A3039 RMK A01 T00441025  RH  061%=      5-min Rain = 0
KDC1 112338Z 03017G22KT 04/M03 A3039 RMK A01 T00431026  RH  061%=      5-min Rain = 0
KDC1 112339Z 03017KT 04/M03 A3039 RMK A01 T00431026  RH  061%=      5-min Rain = 0
KDC1 112340Z 03018KT 04/M03 A3039 RMK A01 T00431026  RH  061%=      5-min Rain = 0
KDC1 112341Z 03013KT 04/M03 A3039 RMK A01 T00431026  RH  061%=      5-min Rain = 0
KDC1 112342Z 02015KT 04/M03 A3039 RMK A01 T00431026  RH  061%=      5-min Rain = 0
KDC1 112343Z 03016KT 04/M03 A3039 RMK A01 T00431026  RH  061%=      5-min Rain = 0
KDC1 112344Z 03013G18KT 04/M03 A3039 RMK A01 T00431026  RH  061%=      5-min Rain = 0
KDC1 112345Z 03013KT 04/M03 A3039 RMK A01 T00431026  RH  061%=      5-min Rain = 0
KDC1 112346Z 03015G21KT 04/M03 A304 RMK A01 T00431026  RH  061%=      5-min Rain = 0
KDC1 112347Z 03015KT 04/M03 A304 RMK A01 T00431026  RH  061%=      5-min Rain = 0
KDC1 112348Z 03015KT 04/M03 A3039 RMK A01 T00431026  RH  061%=      5-min Rain = 0
KDC1 112349Z 03012KT 04/M03 A3039 RMK A01 T00431026  RH  061%=      5-min Rain = 0
KDC1 112350Z 03015KT 04/M03 A3039 RMK A01 T00431026  RH  061%=      5-min Rain = 0
KDC1 112351Z 03014KT 04/M03 A3039 RMK A01 T00431025  RH  061%=      5-min Rain = 0
KDC1 112352Z 02019KT 04/M03 A3039 RMK A01 T00431025  RH  061%=      5-min Rain = 0
KDC1 112353Z 02016KT 04/M03 A3039 RMK A01 T00421026  RH  061%=      5-min Rain = 0
KDC1 112354Z 02017KT 04/M03 A3039 RMK A01 T00421026  RH  061%=      5-min Rain = 0
KDC1 112355Z 03017G23KT 04/M03 A3039 RMK A01 T00421026  RH  061%=      5-min Rain = 0
KDC1 112356Z 03016G21KT 04/M03 A3039 RMK A01 T00421027  RH  061%=      5-min Rain = 0
KDC1 112357Z 03018G24KT 04/M03 A3039 RMK A01 T00421027  RH  061%=      5-min Rain = 0
KDC1 112358Z 03019G25KT 04/M03 A3039 RMK A01 T00411028  RH  061%=      5-min Rain = 0
KDC1 112359Z 03017G22KT 04/M03 A3039 RMK A01 T00411029  RH  061%=      5-min Rain = 0
KDC1 120000Z 03018G24KT 04/M03 A3039 RMK A01 T00411029  RH  061%=      5-min Rain = 0
KDC1 120001Z 03016KT 04/M03 A304 RMK A01 T00411028  RH  061%=      5-min Rain = 0
KDC1 120002Z 02014KT 04/M03 A304 RMK A01 T00411028  RH  061%=      5-min Rain = 0
KDC1 120003Z 02012KT 04/M03 A304 RMK A01 T00411028  RH  061%=      5-min Rain = 0
KDC1 120004Z 02016KT 04/M03 A304 RMK A01 T00411028  RH  061%=      5-min Rain = 0
KDC1 120005Z 02016KT 04/M03 A304 RMK A01 T00411029  RH  061%=      5-min Rain = 0
KDC1 120006Z 02016KT 04/M03 A304 RMK A01 T00411029  RH  060%=      5-min Rain = 0
KDC1 120007Z 03017KT 04/M03 A304 RMK A01 T00401029  RH  060%=      5-min Rain = 0
KDC1 120008Z 02016KT 04/M03 A304 RMK A01 T00401030  RH  060%=      5-min Rain = 0
KDC1 120009Z 03017G22KT 04/M03 A304 RMK A01 T00401030  RH  060%=      5-min Rain = 0
KDC1 120010Z 03016G21KT 04/M03 A304 RMK A01 T00401030  RH  060%=      5-min Rain = 0
KDC1 120011Z 03015KT 04/M03 A304 RMK A01 T00401030  RH  060%=      5-min Rain = 0
KDC1 120012Z 03018G23KT 04/M03 A304 RMK A01 T00401030  RH  060%=      5-min Rain = 0
KDC1 120013Z 02017G22KT 04/M03 A304 RMK A01 T00401030  RH  060%=      5-min Rain = 0
KDC1 120014Z 02019G25KT 04/M03 A304 RMK A01 T00391031  RH  060%=      5-min Rain = 0
KDC1 120015Z 02018KT 04/M03 A304 RMK A01 T00391031  RH  060%=      5-min Rain = 0
KDC1 120016Z 03016KT 04/M03 A304 RMK A01 T00391030  RH  060%=      5-min Rain = 0
KDC1 120017Z 02016KT 04/M03 A304 RMK A01 T00391030  RH  060%=      5-min Rain = 0
KDC1 120018Z 03016KT 04/M03 A304 RMK A01 T00391031  RH  061%=      5-min Rain = 0
KDC1 120019Z 03013KT 04/M03 A304 RMK A01 T00391031  RH  060%=      5-min Rain = 0
KDC1 120020Z 02015KT 04/M03 A304 RMK A01 T00391031  RH  060%=      5-min Rain = 0
KDC1 120021Z 03012G17KT 04/M03 A304 RMK A01 T00391031  RH  060%=      5-min Rain = 0
KDC1 120022Z 02012G19KT 04/M03 A304 RMK A01 T00391031  RH  060%=      5-min Rain = 0
KDC1 120023Z 02018KT 04/M03 A304 RMK A01 T00391031  RH  060%=      5-min Rain = 0
KDC1 120024Z 02016G21KT 04/M03 A304 RMK A01 T00391031  RH  060%=      5-min Rain = 0
KDC1 120025Z 03020KT 04/M03 A304 RMK A01 T00391032  RH  060%=      5-min Rain = 0
KDC1 120026Z 02018KT 04/M03 A304 RMK A01 T00381032  RH  060%=      5-min Rain = 0
KDC1 120027Z 03017G23KT 04/M03 A304 RMK A01 T00381032  RH  060%=      5-min Rain = 0
KDC1 120028Z 03015KT 04/M03 A304 RMK A01 T00381032  RH  060%=      5-min Rain = 0
KDC1 120029Z 02016KT 04/M03 A304 RMK A01 T00381032  RH  060%=      5-min Rain = 0
KDC1 120030Z 02016G21KT 04/M03 A304 RMK A01 T00381032  RH  060%=      5-min Rain = 0
KDC1 120031Z 02017KT 04/M03 A304 RMK A01 T00381032  RH  060%=      5-min Rain = 0
KDC1 120032Z 02018KT 04/M03 A304 RMK A01 T00391032  RH  060%=      5-min Rain = 0
KDC1 120033Z 02018G24KT 04/M03 A304 RMK A01 T00381032  RH  060%=      5-min Rain = 0
KDC1 120034Z 03021KT 04/M03 A304 RMK A01 T00381032  RH  060%=      5-min Rain = 0
KDC1 120035Z 02018KT 04/M03 A304 RMK A01 T00381033  RH  060%=      5-min Rain = 0
KDC1 120036Z 03019KT 04/M03 A304 RMK A01 T00381033  RH  060%=      5-min Rain = 0
KDC1 120037Z 03017G23KT 04/M03 A304 RMK A01 T00381033  RH  060%=      5-min Rain = 0
KDC1 120038Z 02015KT 04/M03 A304 RMK A01 T00381033  RH  060%=      5-min Rain = 0
KDC1 120039Z 03020KT 04/M03 A304 RMK A01 T00381033  RH  060%=      5-min Rain = 0
KDC1 120040Z 02018G23KT 04/M03 A304 RMK A01 T00381033  RH  060%=      5-min Rain = 0
KDC1 120041Z 03021G27KT 04/M03 A304 RMK A01 T00381033  RH  060%=      5-min Rain = 0
KDC1 120042Z 03020KT 04/M03 A304 RMK A01 T00381033  RH  060%=      5-min Rain = 0
KDC1 120043Z 03020KT 04/M03 A304 RMK A01 T00381033  RH  060%=      5-min Rain = 0
KDC1 120044Z 02019KT 04/M03 A304 RMK A01 T00381034  RH  059%=      5-min Rain = 0
KDC1 120045Z 02020KT 04/M03 A3041 RMK A01 T00381034  RH  059%=      5-min Rain = 0
KDC1 120046Z 03021G26KT 04/M03 A3041 RMK A01 T00381034  RH  059%=      5-min Rain = 0
KDC1 120047Z 03020G25KT 04/M03 A3041 RMK A01 T00381034  RH  059%=      5-min Rain = 0
KDC1 120048Z 03020G25KT 04/M03 A3041 RMK A01 T00381034  RH  059%=      5-min Rain = 0
KDC1 120049Z 02018KT 04/M03 A3042 RMK A01 T00381034  RH  059%=      5-min Rain = 0
KDC1 120050Z 02017G24KT 04/M03 A3041 RMK A01 T00381034  RH  059%=      5-min Rain = 0
KDC1 120051Z 03018G25KT 04/M03 A3042 RMK A01 T00381034  RH  059%=      5-min Rain = 0
KDC1 120052Z 02017G24KT 04/M03 A3042 RMK A01 T00381034  RH  059%=      5-min Rain = 0
KDC1 120053Z 02018G25KT 04/M03 A3042 RMK A01 T00381034  RH  059%=      5-min Rain = 0
KDC1 120054Z 02017KT 04/M03 A3042 RMK A01 T00381034  RH  059%=      5-min Rain = 0
KDC1 120055Z 02016G22KT 04/M03 A3042 RMK A01 T00381034  RH  059%=      5-min Rain = 0
KDC1 120056Z 02019G24KT 04/M03 A3042 RMK A01 T00381034  RH  059%=      5-min Rain = 0
KDC1 120057Z 02020G25KT 04/M04 A3043 RMK A01 T00371035  RH  059%=      5-min Rain = 0
KDC1 120058Z 02021KT 04/M04 A3043 RMK A01 T00371035  RH  059%=      5-min Rain = 0
KDC1 120059Z 02020KT 04/M04 A3043 RMK A01 T00361035  RH  059%=      5-min Rain = 0
KDC1 120100Z 02022KT 04/M04 A3043 RMK A01 T00371035  RH  059%=      5-min Rain = 0
KDC1 120101Z 02022KT 04/M04 A3043 RMK A01 T00361035  RH  059%=      5-min Rain = 0
KDC1 120102Z 02021G26KT 04/M04 A3043 RMK A01 T00361035  RH  060%=      5-min Rain = 0
KDC1 120103Z 03018KT 04/M04 A3043 RMK A01 T00361035  RH  060%=      5-min Rain = 0
KDC1 120104Z 03020G25KT 04/M04 A3043 RMK A01 T00361035  RH  060%=      5-min Rain = 0
KDC1 120105Z 03021G26KT 04/M04 A3043 RMK A01 T00361035  RH  060%=      5-min Rain = 0
KDC1 120106Z 03017KT 04/M04 A3043 RMK A01 T00361035  RH  060%=      5-min Rain = 0
KDC1 120107Z 03017KT 04/M04 A3043 RMK A01 T00361035  RH  060%=      5-min Rain = 0
KDC1 120108Z 03020KT 04/M04 A3044 RMK A01 T00371035  RH  060%=      5-min Rain = 0
KDC1 120109Z 02018G24KT 04/M04 A3044 RMK A01 T00371035  RH  060%=      5-min Rain = 0
KDC1 120110Z 03019KT 04/M04 A3044 RMK A01 T00371035  RH  060%=      5-min Rain = 0
KDC1 120111Z 03021KT 04/M04 A3044 RMK A01 T00371035  RH  059%=      5-min Rain = 0
KDC1 120112Z 03020G25KT 04/M04 A3044 RMK A01 T00361036  RH  059%=      5-min Rain = 0
KDC1 120113Z 03019G24KT 04/M04 A3044 RMK A01 T00361035  RH  059%=      5-min Rain = 0
KDC1 120114Z 03019KT 04/M04 A3044 RMK A01 T00361036  RH  059%=      5-min Rain = 0
KDC1 120115Z 03017KT 04/M04 A3043 RMK A01 T00361035  RH  059%=      5-min Rain = 0
KDC1 120116Z 03018KT 04/M04 A3044 RMK A01 T00361035  RH  060%=      5-min Rain = 0
KDC1 120117Z 03016G21KT 04/M04 A3044 RMK A01 T00361035  RH  059%=      5-min Rain = 0
KDC1 120118Z 03016KT 04/M04 A3044 RMK A01 T00361035  RH  059%=      5-min Rain = 0
KDC1 120119Z 03016KT 04/M04 A3044 RMK A01 T00361035  RH  059%=      5-min Rain = 0
KDC1 120120Z 04018G23KT 04/M04 A3044 RMK A01 T00361035  RH  059%=      5-min Rain = 0
KDC1 120121Z 03016G21KT 04/M04 A3044 RMK A01 T00361036  RH  059%=      5-min Rain = 0
KDC1 120122Z 03016G22KT 04/M04 A3044 RMK A01 T00361035  RH  059%=      5-min Rain = 0
KDC1 120123Z 03020G26KT 04/M04 A3044 RMK A01 T00361035  RH  060%=      5-min Rain = 0
KDC1 120124Z 03017G23KT 04/M04 A3044 RMK A01 T00361035  RH  059%=      5-min Rain = 0
KDC1 120125Z 03016G21KT 04/M04 A3043 RMK A01 T00361035  RH  060%=      5-min Rain = 0
KDC1 120126Z 03017G23KT 04/M04 A3044 RMK A01 T00361035  RH  060%=      5-min Rain = 0
KDC1 120127Z 03017G22KT 04/M04 A3044 RMK A01 T00361035  RH  060%=      5-min Rain = 0
KDC1 120128Z 03018G23KT 04/M04 A3044 RMK A01 T00361035  RH  060%=      5-min Rain = 0
KDC1 120129Z 03016G22KT 04/M04 A3044 RMK A01 T00361035  RH  060%=      5-min Rain = 0
KDC1 120130Z 03016G22KT 04/M04 A3044 RMK A01 T00361035  RH  060%=      5-min Rain = 0
KDC1 120131Z 03014G20KT 04/M04 A3043 RMK A01 T00361035  RH  060%=      5-min Rain = 0
KDC1 120132Z 03015G22KT 04/M04 A3044 RMK A01 T00361035  RH  060%=      5-min Rain = 0
KDC1 120133Z 03014G20KT 04/M04 A3044 RMK A01 T00361035  RH  060%=      5-min Rain = 0
KDC1 120134Z 03014KT 04/M04 A3044 RMK A01 T00361035  RH  060%=      5-min Rain = 0
KDC1 120135Z 02016G22KT 04/M04 A3044 RMK A01 T00361035  RH  059%=      5-min Rain = 0
KDC1 120136Z 03016KT 04/M04 A3045 RMK A01 T00361036  RH  059%=      5-min Rain = 0
KDC1 120137Z 03015KT 04/M04 A3045 RMK A01 T00361036  RH  059%=      5-min Rain = 0
KDC1 120138Z 03017KT 04/M04 A3045 RMK A01 T00361035  RH  059%=      5-min Rain = 0
KDC1 120139Z 03018G24KT 04/M04 A3045 RMK A01 T00361036  RH  059%=      5-min Rain = 0
KDC1 120140Z 03019KT 04/M04 A3045 RMK A01 T00361036  RH  059%=      5-min Rain = 0
KDC1 120141Z 04016KT 04/M04 A3045 RMK A01 T00361036  RH  059%=      5-min Rain = 0
KDC1 120142Z 04018G25KT 04/M04 A3045 RMK A01 T00361036  RH  059%=      5-min Rain = 0
KDC1 120143Z 03019KT 04/M04 A3045 RMK A01 T00361036  RH  059%=      5-min Rain = 0
KDC1 120144Z 03020KT 04/M04 A3045 RMK A01 T00361036  RH  059%=      5-min Rain = 0
KDC1 120145Z 03019G25KT 04/M04 A3045 RMK A01 T00361036  RH  059%=      5-min Rain = 0
KDC1 120146Z 03018G25KT 04/M04 A3045 RMK A01 T00351036  RH  060%=      5-min Rain = 0
KDC1 120147Z 03016G22KT 04/M04 A3045 RMK A01 T00351036  RH  060%=      5-min Rain = 0
KDC1 120148Z 02018KT 04/M04 A3045 RMK A01 T00351035  RH  060%=      5-min Rain = 0
KDC1 120149Z 03017KT 04/M04 A3045 RMK A01 T00351035  RH  060%=      5-min Rain = 0
KDC1 120150Z 03015KT 04/M04 A3045 RMK A01 T00351036  RH  060%=      5-min Rain = 0
KDC1 120151Z 03017KT 04/M04 A3045 RMK A01 T00351035  RH  060%=      5-min Rain = 0
KDC1 120152Z 03016KT 04/M04 A3045 RMK A01 T00351036  RH  060%=      5-min Rain = 0
KDC1 120153Z 03018KT 04/M04 A3045 RMK A01 T00351036  RH  060%=      5-min Rain = 0
KDC1 120154Z 03017KT 04/M04 A3045 RMK A01 T00351036  RH  060%=      5-min Rain = 0
KDC1 120155Z 03018G23KT 04/M04 A3045 RMK A01 T00351036  RH  060%=      5-min Rain = 0
KDC1 120156Z 02017G23KT 04/M04 A3045 RMK A01 T00351036  RH  060%=      5-min Rain = 0
KDC1 120157Z 03019KT 04/M04 A3046 RMK A01 T00351036  RH  060%=      5-min Rain = 0
KDC1 120158Z 03015KT 04/M04 A3046 RMK A01 T00351036  RH  060%=      5-min Rain = 0
KDC1 120159Z 03021KT 04/M04 A3046 RMK A01 T00351036  RH  060%=      5-min Rain = 0
KDC1 120200Z 02020KT 04/M04 A3046 RMK A01 T00351036  RH  060%=      5-min Rain = 0
KDC1 120201Z 02019G25KT 04/M04 A3046 RMK A01 T00361036  RH  060%=      5-min Rain = 0
KDC1 120202Z 02016G21KT 04/M04 A3046 RMK A01 T00361036  RH  060%=      5-min Rain = 0
KDC1 120203Z 02016KT 04/M04 A3046 RMK A01 T00361035  RH  060%=      5-min Rain = 0
KDC1 120204Z 02017G22KT 04/M04 A3046 RMK A01 T00361035  RH  060%=      5-min Rain = 0
KDC1 120205Z 02018KT 04/M04 A3046 RMK A01 T00361035  RH  060%=      5-min Rain = 0
KDC1 120206Z 02017KT 04/M04 A3046 RMK A01 T00361035  RH  060%=      5-min Rain = 0
KDC1 120207Z 02018KT 04/M04 A3046 RMK A01 T00361035  RH  060%=      5-min Rain = 0
KDC1 120208Z 02016KT 04/M04 A3046 RMK A01 T00361035  RH  060%=      5-min Rain = 0
KDC1 120209Z 02017G22KT 04/M04 A3046 RMK A01 T00361035  RH  060%=      5-min Rain = 0
KDC1 120210Z 03017G22KT 04/M04 A3045 RMK A01 T00361035  RH  060%=      5-min Rain = 0
KDC1 120211Z 03016KT 04/M04 A3045 RMK A01 T00361035  RH  060%=      5-min Rain = 0
KDC1 120212Z 03020G26KT 04/M04 A3045 RMK A01 T00361035  RH  060%=      5-min Rain = 0
KDC1 120213Z 03016G23KT 04/M04 A3046 RMK A01 T00361036  RH  060%=      5-min Rain = 0
KDC1 120214Z 03016KT 04/M04 A3045 RMK A01 T00361035  RH  060%=      5-min Rain = 0
KDC1 120215Z 02015KT 04/M04 A3045 RMK A01 T00361035  RH  060%=      5-min Rain = 0
KDC1 120216Z 02017KT 04/M04 A3045 RMK A01 T00361035  RH  060%=      5-min Rain = 0
KDC1 120217Z 02019G24KT 04/M04 A3045 RMK A01 T00361035  RH  060%=      5-min Rain = 0
KDC1 120218Z 02020G25KT 04/M04 A3045 RMK A01 T00361036  RH  060%=      5-min Rain = 0
KDC1 120219Z 02019G24KT 04/M04 A3046 RMK A01 T00361036  RH  060%=      5-min Rain = 0
KDC1 120220Z 02019KT 04/M04 A3046 RMK A01 T00351036  RH  060%=      5-min Rain = 0
KDC1 120221Z 02018KT 04/M04 A3046 RMK A01 T00351036  RH  060%=      5-min Rain = 0
KDC1 120222Z 03018KT 04/M04 A3046 RMK A01 T00351036  RH  060%=      5-min Rain = 0
KDC1 120223Z 03017G24KT 04/M04 A3046 RMK A01 T00351036  RH  060%=      5-min Rain = 0
KDC1 120224Z 03019KT 04/M04 A3046 RMK A01 T00351036  RH  060%=      5-min Rain = 0
KDC1 120225Z 03019G26KT 04/M04 A3046 RMK A01 T00351036  RH  060%=      5-min Rain = 0
KDC1 120226Z 03016G21KT 04/M04 A3046 RMK A01 T00351036  RH  060%=      5-min Rain = 0
KDC1 120227Z 03015KT 04/M04 A3046 RMK A01 T00351036  RH  060%=      5-min Rain = 0
KDC1 120228Z 02016G23KT 04/M04 A3046 RMK A01 T00351036  RH  060%=      5-min Rain = 0
KDC1 120229Z 02019KT 04/M04 A3046 RMK A01 T00351036  RH  060%=      5-min Rain = 0
KDC1 120230Z 02018KT 04/M04 A3046 RMK A01 T00351036  RH  060%=      5-min Rain = 0
KDC1 120231Z 03016KT 04/M04 A3046 RMK A01 T00351036  RH  060%=      5-min Rain = 0
KDC1 120232Z 03016G21KT 04/M04 A3046 RMK A01 T00351036  RH  060%=      5-min Rain = 0
KDC1 120233Z 03017KT 04/M04 A3046 RMK A01 T00351036  RH  060%=      5-min Rain = 0
KDC1 120234Z 03017G23KT 04/M04 A3046 RMK A01 T00351036  RH  060%=      5-min Rain = 0
KDC1 120235Z 03017G22KT 04/M04 A3046 RMK A01 T00351036  RH  060%=      5-min Rain = 0
KDC1 120236Z 03015G21KT 04/M04 A3046 RMK A01 T00351036  RH  059%=      5-min Rain = 0
KDC1 120237Z 02015KT 04/M04 A3046 RMK A01 T00351036  RH  059%=      5-min Rain = 0
KDC1 120238Z 02014G20KT 04/M04 A3046 RMK A01 T00351036  RH  059%=      5-min Rain = 0
KDC1 120239Z 03014KT 04/M04 A3046 RMK A01 T00351036  RH  059%=      5-min Rain = 0
KDC1 120240Z 03015KT 04/M04 A3046 RMK A01 T00351036  RH  060%=      5-min Rain = 0
KDC1 120241Z 02015KT 04/M04 A3046 RMK A01 T00351037  RH  059%=      5-min Rain = 0
KDC1 120242Z 02015KT 04/M04 A3046 RMK A01 T00351037  RH  059%=      5-min Rain = 0
KDC1 120243Z 02016KT 04/M04 A3046 RMK A01 T00351038  RH  059%=      5-min Rain = 0
KDC1 120244Z 02015KT 04/M04 A3046 RMK A01 T00351038  RH  059%=      5-min Rain = 0
KDC1 120245Z 02014KT 04/M04 A3046 RMK A01 T00351038  RH  059%=      5-min Rain = 0
KDC1 120246Z 02015G20KT 04/M04 A3046 RMK A01 T00351038  RH  059%=      5-min Rain = 0
KDC1 120247Z 02013KT 04/M04 A3046 RMK A01 T00351038  RH  059%=      5-min Rain = 0
KDC1 120248Z 02015KT 04/M04 A3046 RMK A01 T00351038  RH  059%=      5-min Rain = 0
KDC1 120249Z 02016KT 04/M04 A3046 RMK A01 T00351038  RH  059%=      5-min Rain = 0
KDC1 120250Z 03012KT 04/M04 A3046 RMK A01 T00351038  RH  059%=      5-min Rain = 0
KDC1 120251Z 03017KT 04/M04 A3046 RMK A01 T00351038  RH  059%=      5-min Rain = 0
KDC1 120252Z 03019KT 04/M04 A3046 RMK A01 T00351039  RH  058%=      5-min Rain = 0
KDC1 120253Z 03017G23KT 04/M04 A3047 RMK A01 T00351040  RH  058%=      5-min Rain = 0
KDC1 120254Z 02015KT 04/M04 A3046 RMK A01 T00351039  RH  058%=      5-min Rain = 0
KDC1 120255Z 02017KT 04/M04 A3046 RMK A01 T00351039  RH  058%=      5-min Rain = 0
KDC1 120256Z 02017KT 04/M04 A3046 RMK A01 T00351040  RH  058%=      5-min Rain = 0
KDC1 120257Z 02015KT 04/M04 A3046 RMK A01 T00351040  RH  058%=      5-min Rain = 0
KDC1 120258Z 03018G24KT 03/M04 A3047 RMK A01 T00341040  RH  058%=      5-min Rain = 0
KDC1 120259Z 03017G22KT 03/M04 A3047 RMK A01 T00341041  RH  058%=      5-min Rain = 0
KDC1 120300Z 02015KT 04/M04 A3046 RMK A01 T00351040  RH  058%=      5-min Rain = 0
KDC1 120301Z 02015KT 04/M04 A3046 RMK A01 T00351039  RH  058%=      5-min Rain = 0
KDC1 120302Z 02015KT 04/M04 A3046 RMK A01 T00351039  RH  058%=      5-min Rain = 0
KDC1 120303Z 02017KT 04/M04 A3046 RMK A01 T00351040  RH  058%=      5-min Rain = 0
KDC1 120304Z 02017KT 04/M04 A3046 RMK A01 T00351040  RH  058%=      5-min Rain = 0
KDC1 120305Z 02017G22KT 04/M04 A3047 RMK A01 T00351040  RH  058%=      5-min Rain = 0
KDC1 120306Z 02015KT 04/M04 A3047 RMK A01 T00351040  RH  058%=      5-min Rain = 0
KDC1 120307Z 02015KT 04/M04 A3047 RMK A01 T00351040  RH  058%=      5-min Rain = 0
KDC1 120308Z 02015KT 04/M04 A3047 RMK A01 T00351041  RH  058%=      5-min Rain = 0
KDC1 120309Z 02017KT 03/M04 A3047 RMK A01 T00341041  RH  058%=      5-min Rain = 0
KDC1 120310Z 02013KT 03/M04 A3047 RMK A01 T00341041  RH  058%=      5-min Rain = 0
KDC1 120311Z 02016KT 03/M04 A3047 RMK A01 T00341041  RH  058%=      5-min Rain = 0
KDC1 120312Z 03015KT 03/M04 A3047 RMK A01 T00341041  RH  058%=      5-min Rain = 0
KDC1 120313Z 02016KT 03/M04 A3047 RMK A01 T00331041  RH  058%=      5-min Rain = 0
KDC1 120314Z 02016KT 03/M04 A3047 RMK A01 T00331041  RH  058%=      5-min Rain = 0
KDC1 120315Z 02013KT 03/M04 A3047 RMK A01 T00331041  RH  058%=      5-min Rain = 0
KDC1 120316Z 01014KT 03/M04 A3047 RMK A01 T00331041  RH  058%=      5-min Rain = 0
KDC1 120317Z 01013KT 03/M04 A3047 RMK A01 T00331041  RH  058%=      5-min Rain = 0
KDC1 120318Z 02011KT 03/M04 A3048 RMK A01 T00331041  RH  058%=      5-min Rain = 0
KDC1 120319Z 02012KT 03/M04 A3048 RMK A01 T00331041  RH  059%=      5-min Rain = 0
KDC1 120320Z 02013G18KT 03/M04 A3048 RMK A01 T00331041  RH  058%=      5-min Rain = 0
KDC1 120321Z 02014KT 03/M04 A3048 RMK A01 T00341041  RH  058%=      5-min Rain = 0
KDC1 120322Z 02015KT 03/M04 A3048 RMK A01 T00331041  RH  058%=      5-min Rain = 0
KDC1 120323Z 02013KT 03/M04 A3048 RMK A01 T00341041  RH  058%=      5-min Rain = 0
KDC1 120324Z 03012KT 03/M04 A3049 RMK A01 T00331042  RH  058%=      5-min Rain = 0
KDC1 120325Z 02013G18KT 03/M04 A3049 RMK A01 T00331041  RH  058%=      5-min Rain = 0
KDC1 120326Z 02013KT 03/M04 A3049 RMK A01 T00321042  RH  058%=      5-min Rain = 0
KDC1 120327Z 03012KT 03/M04 A3049 RMK A01 T00321043  RH  058%=      5-min Rain = 0
KDC1 120328Z 03015KT 03/M04 A3049 RMK A01 T00321043  RH  058%=      5-min Rain = 0
KDC1 120329Z 03015KT 03/M04 A3049 RMK A01 T00321043  RH  058%=      5-min Rain = 0
KDC1 120330Z 03015KT 03/M04 A3049 RMK A01 T00321044  RH  058%=      5-min Rain = 0
KDC1 120331Z 02013KT 03/M04 A3049 RMK A01 T00311044  RH  058%=      5-min Rain = 0
KDC1 120332Z 02016KT 03/M04 A3049 RMK A01 T00311043  RH  058%=      5-min Rain = 0
KDC1 120333Z 03016KT 03/M04 A3049 RMK A01 T00311044  RH  058%=      5-min Rain = 0
KDC1 120334Z 02016KT 03/M04 A3049 RMK A01 T00311044  RH  058%=      5-min Rain = 0
KDC1 120335Z 02013KT 03/M04 A3049 RMK A01 T00301044  RH  058%=      5-min Rain = 0
KDC1 120336Z 02012KT 03/M04 A3049 RMK A01 T00301043  RH  058%=      5-min Rain = 0
KDC1 120337Z 02013KT 03/M04 A3049 RMK A01 T00301043  RH  058%=      5-min Rain = 0
KDC1 120338Z 02014KT 03/M04 A3049 RMK A01 T00301043  RH  058%=      5-min Rain = 0
KDC1 120339Z 02012G17KT 03/M04 A3049 RMK A01 T00301044  RH  058%=      5-min Rain = 0
KDC1 120340Z 03011G16KT 03/M04 A3049 RMK A01 T00301043  RH  058%=      5-min Rain = 0
KDC1 120341Z 02013KT 03/M04 A3049 RMK A01 T00301043  RH  058%=      5-min Rain = 0
KDC1 120342Z 02013KT 03/M04 A3049 RMK A01 T00311043  RH  058%=      5-min Rain = 0
KDC1 120343Z 02011G16KT 03/M04 A3049 RMK A01 T00311044  RH  058%=      5-min Rain = 0
KDC1 120344Z 03011KT 03/M04 A3049 RMK A01 T00311044  RH  058%=      5-min Rain = 0
KDC1 120345Z 02013KT 03/M04 A3049 RMK A01 T00311044  RH  058%=      5-min Rain = 0
KDC1 120346Z 03015KT 03/M05 A3049 RMK A01 T00311045  RH  057%=      5-min Rain = 0
KDC1 120347Z 03016KT 03/M05 A3049 RMK A01 T00311046  RH  057%=      5-min Rain = 0
KDC1 120348Z 02016KT 03/M05 A3049 RMK A01 T00301046  RH  057%=      5-min Rain = 0
KDC1 120349Z 03015G20KT 03/M05 A3049 RMK A01 T00301047  RH  057%=      5-min Rain = 0
KDC1 120350Z 02012KT 03/M05 A3049 RMK A01 T00291047  RH  057%=      5-min Rain = 0
KDC1 120351Z 02012KT 03/M05 A3049 RMK A01 T00291046  RH  058%=      5-min Rain = 0
KDC1 120352Z 02014KT 03/M05 A305 RMK A01 T00291046  RH  058%=      5-min Rain = 0
KDC1 120353Z 02014KT 03/M05 A305 RMK A01 T00291047  RH  057%=      5-min Rain = 0
KDC1 120354Z 02016KT 03/M05 A305 RMK A01 T00291047  RH  057%=      5-min Rain = 0
KDC1 120355Z 02014KT 03/M05 A305 RMK A01 T00301047  RH  057%=      5-min Rain = 0
KDC1 120356Z 02012KT 03/M05 A305 RMK A01 T00291047  RH  057%=      5-min Rain = 0
KDC1 120357Z 02013KT 03/M05 A305 RMK A01 T00291047  RH  057%=      5-min Rain = 0
KDC1 120358Z 02016KT 03/M05 A305 RMK A01 T00291047  RH  057%=      5-min Rain = 0
KDC1 120359Z 02016KT 03/M05 A305 RMK A01 T00291048  RH  057%=      5-min Rain = 0
KDC1 120400Z 02016KT 03/M05 A305 RMK A01 T00291047  RH  057%=      5-min Rain = 0
KDC1 120401Z 02016KT 03/M05 A305 RMK A01 T00291047  RH  057%=      5-min Rain = 0
KDC1 120402Z 02014KT 03/M05 A305 RMK A01 T00291048  RH  057%=      5-min Rain = 0
KDC1 120403Z 02014KT 03/M05 A305 RMK A01 T00291048  RH  057%=      5-min Rain = 0
KDC1 120404Z 01013KT 03/M05 A305 RMK A01 T00291048  RH  057%=      5-min Rain = 0
KDC1 120405Z 01014KT 03/M05 A305 RMK A01 T00291048  RH  057%=      5-min Rain = 0
KDC1 120406Z 01013KT 03/M05 A305 RMK A01 T00281049  RH  057%=      5-min Rain = 0
KDC1 120407Z 01012KT 03/M05 A305 RMK A01 T00281050  RH  057%=      5-min Rain = 0
KDC1 120408Z 01014KT 03/M05 A305 RMK A01 T00281050  RH  057%=      5-min Rain = 0
KDC1 120409Z 01011KT 03/M05 A305 RMK A01 T00281050  RH  057%=      5-min Rain = 0
KDC1 120410Z 02015G20KT 03/M05 A305 RMK A01 T00281050  RH  057%=      5-min Rain = 0
KDC1 120411Z 01012KT 03/M05 A305 RMK A01 T00281050  RH  057%=      5-min Rain = 0
KDC1 120412Z 01016KT 03/M05 A305 RMK A01 T00281050  RH  057%=      5-min Rain = 0
KDC1 120413Z 02015G21KT 03/M05 A305 RMK A01 T00281050  RH  057%=      5-min Rain = 0
KDC1 120414Z 02015KT 03/M05 A305 RMK A01 T00281050  RH  056%=      5-min Rain = 0
KDC1 120415Z 01012KT 03/M05 A305 RMK A01 T00281050  RH  056%=      5-min Rain = 0
KDC1 120416Z 01017KT 03/M05 A305 RMK A01 T00271050  RH  057%=      5-min Rain = 0
KDC1 120417Z 01018KT 03/M05 A305 RMK A01 T00271051  RH  056%=      5-min Rain = 0
KDC1 120418Z 02014G19KT 03/M05 A305 RMK A01 T00271051  RH  056%=      5-min Rain = 0
KDC1 120419Z 01013KT 03/M05 A305 RMK A01 T00271051  RH  056%=      5-min Rain = 0
KDC1 120420Z 01012KT 03/M05 A305 RMK A01 T00271051  RH  056%=      5-min Rain = 0
KDC1 120421Z 02012G18KT 03/M05 A305 RMK A01 T00271050  RH  057%=      5-min Rain = 0
KDC1 120422Z 02013KT 03/M05 A305 RMK A01 T00281050  RH  057%=      5-min Rain = 0
KDC1 120423Z 02015KT 03/M05 A305 RMK A01 T00281050  RH  057%=      5-min Rain = 0
KDC1 120424Z 02017KT 03/M05 A305 RMK A01 T00281051  RH  056%=      5-min Rain = 0
KDC1 120425Z 02020KT 03/M05 A305 RMK A01 T00281051  RH  056%=      5-min Rain = 0
KDC1 120426Z 02019KT 03/M05 A305 RMK A01 T00281052  RH  056%=      5-min Rain = 0
KDC1 120427Z 02017KT 03/M05 A305 RMK A01 T00281052  RH  056%=      5-min Rain = 0
KDC1 120428Z 01013KT 03/M05 A305 RMK A01 T00281052  RH  056%=      5-min Rain = 0
KDC1 120429Z 02016G21KT 03/M05 A305 RMK A01 T00281051  RH  056%=      5-min Rain = 0
KDC1 120430Z 02018KT 03/M05 A3051 RMK A01 T00281052  RH  056%=      5-min Rain = 0
KDC1 120431Z 03014KT 03/M05 A3051 RMK A01 T00281052  RH  056%=      5-min Rain = 0
KDC1 120432Z 02017G22KT 03/M05 A3051 RMK A01 T00281052  RH  056%=      5-min Rain = 0
KDC1 120433Z 02017G23KT 03/M05 A305 RMK A01 T00281052  RH  056%=      5-min Rain = 0
KDC1 120434Z 02018KT 03/M05 A305 RMK A01 T00281052  RH  056%=      5-min Rain = 0
KDC1 120435Z 02016KT 03/M05 A305 RMK A01 T00281052  RH  056%=      5-min Rain = 0
KDC1 120436Z 03016KT 03/M05 A3051 RMK A01 T00281052  RH  056%=      5-min Rain = 0
KDC1 120437Z 02018KT 03/M05 A3051 RMK A01 T00281053  RH  055%=      5-min Rain = 0
KDC1 120438Z 03016G22KT 03/M05 A3051 RMK A01 T00281053  RH  055%=      5-min Rain = 0
KDC1 120439Z 03016G21KT 03/M05 A3051 RMK A01 T00281053  RH  055%=      5-min Rain = 0
KDC1 120440Z 02018KT 03/M05 A3051 RMK A01 T00281053  RH  055%=      5-min Rain = 0
KDC1 120441Z 03017KT 03/M05 A3051 RMK A01 T00281054  RH  055%=      5-min Rain = 0
KDC1 120442Z 03016KT 03/M05 A3051 RMK A01 T00281054  RH  055%=      5-min Rain = 0
KDC1 120443Z 02012KT 03/M05 A3051 RMK A01 T00281053  RH  055%=      5-min Rain = 0
KDC1 120444Z 02014KT 03/M05 A3052 RMK A01 T00291053  RH  055%=      5-min Rain = 0
KDC1 120445Z 02014KT 03/M05 A3052 RMK A01 T00291053  RH  055%=      5-min Rain = 0
KDC1 120446Z 02014KT 03/M05 A3052 RMK A01 T00291053  RH  055%=      5-min Rain = 0
KDC1 120447Z 02013KT 03/M05 A3052 RMK A01 T00291054  RH  055%=      5-min Rain = 0
KDC1 120448Z 02014KT 03/M05 A3052 RMK A01 T00291054  RH  054%=      5-min Rain = 0
KDC1 120449Z 03014KT 03/M05 A3052 RMK A01 T00291054  RH  054%=      5-min Rain = 0
KDC1 120450Z 03016KT 03/M06 A3052 RMK A01 T00291056  RH  054%=      5-min Rain = 0
KDC1 120451Z 03015KT 03/M06 A3052 RMK A01 T00291056  RH  053%=      5-min Rain = 0
KDC1 120452Z 03016KT 03/M06 A3052 RMK A01 T00291056  RH  053%=      5-min Rain = 0
KDC1 120453Z 02013KT 03/M06 A3052 RMK A01 T00291056  RH  054%=      5-min Rain = 0
KDC1 120454Z 02015KT 03/M06 A3052 RMK A01 T00291056  RH  054%=      5-min Rain = 0
KDC1 120455Z 02012KT 03/M06 A3052 RMK A01 T00291057  RH  053%=      5-min Rain = 0
KDC1 120456Z 01010KT 03/M06 A3052 RMK A01 T00291056  RH  054%=      5-min Rain = 0
KDC1 120457Z 01014KT 03/M06 A3052 RMK A01 T00291055  RH  054%=      5-min Rain = 0
KDC1 120458Z 01013KT 03/M06 A3052 RMK A01 T00291055  RH  054%=      5-min Rain = 0
KDC1 120459Z 02014KT 03/M06 A3052 RMK A01 T00281055  RH  054%=      5-min Rain = 0
KDC1 120500Z 02013G18KT 03/M06 A3052 RMK A01 T00281056  RH  054%=      5-min Rain = 0
KDC1 120501Z 02014G20KT 03/M06 A3052 RMK A01 T00281057  RH  054%=      5-min Rain = 0
KDC1 120502Z 02014KT 03/M06 A3052 RMK A01 T00281058  RH  053%=      5-min Rain = 0
KDC1 120503Z 02015G20KT 03/M06 A3052 RMK A01 T00281060  RH  053%=      5-min Rain = 0
KDC1 120504Z 04013G19KT 03/M06 A3051 RMK A01 T00281060  RH  052%=      5-min Rain = 0
KDC1 120505Z 03018G23KT 03/M06 A3051 RMK A01 T00271061  RH  052%=      5-min Rain = 0
KDC1 120506Z 03016G21KT 03/M06 A3051 RMK A01 T00271061  RH  052%=      5-min Rain = 0
KDC1 120507Z 03015G20KT 03/M06 A3051 RMK A01 T00281061  RH  052%=      5-min Rain = 0
KDC1 120508Z 03017KT 03/M06 A3051 RMK A01 T00271061  RH  052%=      5-min Rain = 0
KDC1 120509Z 03013KT 03/M06 A3051 RMK A01 T00281061  RH  052%=      5-min Rain = 0
KDC1 120510Z 03012KT 03/M06 A3051 RMK A01 T00281060  RH  052%=      5-min Rain = 0
KDC1 120511Z 02012KT 03/M06 A3051 RMK A01 T00281060  RH  052%=      5-min Rain = 0
KDC1 120512Z 02014G19KT 03/M06 A3051 RMK A01 T00281059  RH  053%=      5-min Rain = 0
KDC1 120513Z 02016KT 03/M06 A3051 RMK A01 T00281058  RH  053%=      5-min Rain = 0
KDC1 120514Z 01016KT 03/M06 A3051 RMK A01 T00281058  RH  053%=      5-min Rain = 0
KDC1 120515Z 02016KT 03/M06 A305 RMK A01 T00281058  RH  053%=      5-min Rain = 0
KDC1 120516Z 02015KT 03/M06 A305 RMK A01 T00281059  RH  053%=      5-min Rain = 0
KDC1 120517Z 02014KT 03/M06 A305 RMK A01 T00281060  RH  053%=      5-min Rain = 0
KDC1 120518Z 03018G23KT 03/M06 A305 RMK A01 T00271060  RH  052%=      5-min Rain = 0
KDC1 120519Z 03016G21KT 03/M06 A305 RMK A01 T00271062  RH  052%=      5-min Rain = 0
KDC1 120520Z 02018KT 03/M06 A3051 RMK A01 T00271062  RH  052%=      5-min Rain = 0
KDC1 120521Z 02018G23KT 03/M06 A3051 RMK A01 T00271062  RH  052%=      5-min Rain = 0
KDC1 120522Z 03016G21KT 03/M06 A3051 RMK A01 T00271063  RH  051%=      5-min Rain = 0
KDC1 120523Z 03019KT 03/M07 A3051 RMK A01 T00271065  RH  051%=      5-min Rain = 0
KDC1 120524Z 03016G22KT 03/M07 A3051 RMK A01 T00271066  RH  050%=      5-min Rain = 0
KDC1 120525Z 03016KT 03/M07 A3051 RMK A01 T00271066  RH  050%=      5-min Rain = 0
KDC1 120526Z 02015KT 03/M07 A3051 RMK A01 T00271066  RH  050%=      5-min Rain = 0
KDC1 120527Z 02014KT 03/M06 A3051 RMK A01 T00281064  RH  051%=      5-min Rain = 0
KDC1 120528Z 01013KT 03/M06 A3051 RMK A01 T00271063  RH  051%=      5-min Rain = 0
KDC1 120529Z 01014KT 03/M06 A3051 RMK A01 T00271063  RH  052%=      5-min Rain = 0
KDC1 120530Z 02013KT 03/M06 A3051 RMK A01 T00281062  RH  052%=      5-min Rain = 0
KDC1 120531Z 02012KT 03/M06 A3051 RMK A01 T00271061  RH  052%=      5-min Rain = 0
KDC1 120532Z 02015KT 03/M06 A3051 RMK A01 T00271061  RH  052%=      5-min Rain = 0
KDC1 120533Z 03014KT 03/M07 A3051 RMK A01 T00271065  RH  051%=      5-min Rain = 0
KDC1 120534Z 02013KT 03/M07 A3051 RMK A01 T00261066  RH  051%=      5-min Rain = 0
KDC1 120535Z 02015G21KT 03/M07 A3051 RMK A01 T00271066  RH  050%=      5-min Rain = 0
KDC1 120536Z 01017G22KT 03/M07 A3051 RMK A01 T00261067  RH  050%=      5-min Rain = 0
KDC1 120537Z 02016G22KT 03/M07 A3051 RMK A01 T00261068  RH  050%=      5-min Rain = 0
KDC1 120538Z 03015KT 03/M07 A3051 RMK A01 T00261068  RH  050%=      5-min Rain = 0
KDC1 120539Z 03016KT 03/M07 A3051 RMK A01 T00261068  RH  050%=      5-min Rain = 0
KDC1 120540Z 02014G19KT 03/M07 A3051 RMK A01 T00261068  RH  050%=      5-min Rain = 0
KDC1 120541Z 02016KT 03/M07 A3051 RMK A01 T00261068  RH  050%=      5-min Rain = 0
KDC1 120542Z 02015G20KT 03/M07 A3052 RMK A01 T00261068  RH  050%=      5-min Rain = 0
KDC1 120543Z 02014KT 03/M07 A3052 RMK A01 T00261068  RH  050%=      5-min Rain = 0
KDC1 120544Z 01014G20KT 03/M07 A3052 RMK A01 T00261068  RH  050%=      5-min Rain = 0
KDC1 120545Z 01015G21KT 03/M07 A3052 RMK A01 T00261068  RH  050%=      5-min Rain = 0
KDC1 120546Z 01014G19KT 03/M07 A3052 RMK A01 T00271067  RH  050%=      5-min Rain = 0
KDC1 120547Z 01015KT 03/M07 A3051 RMK A01 T00271066  RH  050%=      5-min Rain = 0
KDC1 120548Z 01016G23KT 03/M07 A3051 RMK A01 T00271066  RH  051%=      5-min Rain = 0
KDC1 120549Z 01017KT 03/M07 A3051 RMK A01 T00271067  RH  050%=      5-min Rain = 0
KDC1 120550Z 01015G20KT 03/M07 A3051 RMK A01 T00261068  RH  050%=      5-min Rain = 0
KDC1 120551Z 01013KT 03/M07 A3052 RMK A01 T00261067  RH  050%=      5-min Rain = 0
KDC1 120552Z 01010KT 03/M07 A3052 RMK A01 T00261065  RH  051%=      5-min Rain = 0
KDC1 120553Z 02013KT 03/M07 A3052 RMK A01 T00261065  RH  051%=      5-min Rain = 0
KDC1 120554Z 01013KT 03/M07 A3052 RMK A01 T00261066  RH  051%=      5-min Rain = 0
KDC1 120555Z 02012KT 03/M07 A3051 RMK A01 T00261066  RH  051%=      5-min Rain = 0
KDC1 120556Z 03014G19KT 03/M07 A3051 RMK A01 T00271066  RH  051%=      5-min Rain = 0
KDC1 120557Z 02015KT 03/M07 A3051 RMK A01 T00271066  RH  050%=      5-min Rain = 0
KDC1 120558Z 02014KT 03/M07 A3052 RMK A01 T00261067  RH  050%=      5-min Rain = 0
KDC1 120559Z 02015G20KT 03/M07 A3052 RMK A01 T00271067  RH  050%=      5-min Rain = 0

Page generated in 0.0721 seconds.